<?xml version="1.0" encoding="UTF-8" standalone="no" ?>
<gpx xmlns="http://www.topografix.com/GPX/1/1" xmlns:xsi="http://www.w3.org/2001/XMLSchema-instance" xsi:schemaLocation="http://www.topografix.com/GPX/1/1 http://www.topografix.com/GPX/1/1/gpx.xsd" version="1.1" creator="VisuGPX - https://www.visugpx.com">
  <metadata>
    <name>BIAU RI circuit</name>
    <desc><![CDATA[balade au depart de solre le chateau, avesnois ]]></desc>
  </metadata>
  <trk>
    <name><![CDATA[BIAU RI12 10:34:06]]></name>
    <trkseg>
      <trkpt lat="50.17396" lon="4.0917">
        <ele>159.72</ele>
        <time>2012-08-17T07:21:51Z</time>
      </trkpt>
      <trkpt lat="50.17409" lon="4.09217">
        <ele>173.66</ele>
        <time>2012-08-17T07:24:22Z</time>
      </trkpt>
      <trkpt lat="50.17407" lon="4.09236">
        <ele>174.14</ele>
        <time>2012-08-17T07:24:26Z</time>
      </trkpt>
      <trkpt lat="50.17407" lon="4.09258">
        <ele>173.66</ele>
        <time>2012-08-17T07:24:30Z</time>
      </trkpt>
      <trkpt lat="50.17407" lon="4.09276">
        <ele>174.14</ele>
        <time>2012-08-17T07:24:34Z</time>
      </trkpt>
      <trkpt lat="50.17407" lon="4.09291">
        <ele>173.66</ele>
        <time>2012-08-17T07:24:38Z</time>
      </trkpt>
      <trkpt lat="50.17409" lon="4.09309">
        <ele>173.66</ele>
        <time>2012-08-17T07:24:43Z</time>
      </trkpt>
      <trkpt lat="50.17415" lon="4.09319">
        <ele>173.17</ele>
        <time>2012-08-17T07:24:48Z</time>
      </trkpt>
      <trkpt lat="50.17429" lon="4.09323">
        <ele>172.21</ele>
        <time>2012-08-17T07:24:54Z</time>
      </trkpt>
      <trkpt lat="50.1744" lon="4.09321">
        <ele>172.21</ele>
        <time>2012-08-17T07:24:59Z</time>
      </trkpt>
      <trkpt lat="50.17452" lon="4.09318">
        <ele>171.73</ele>
        <time>2012-08-17T07:25:04Z</time>
      </trkpt>
      <trkpt lat="50.17464" lon="4.09317">
        <ele>171.73</ele>
        <time>2012-08-17T07:25:09Z</time>
      </trkpt>
      <trkpt lat="50.17477" lon="4.09328">
        <ele>171.25</ele>
        <time>2012-08-17T07:25:34Z</time>
      </trkpt>
      <trkpt lat="50.17493" lon="4.0933">
        <ele>171.73</ele>
        <time>2012-08-17T07:25:39Z</time>
      </trkpt>
      <trkpt lat="50.17508" lon="4.09333">
        <ele>170.77</ele>
        <time>2012-08-17T07:25:44Z</time>
      </trkpt>
      <trkpt lat="50.17521" lon="4.09338">
        <ele>171.25</ele>
        <time>2012-08-17T07:25:50Z</time>
      </trkpt>
      <trkpt lat="50.1753" lon="4.09344">
        <ele>170.77</ele>
        <time>2012-08-17T07:25:54Z</time>
      </trkpt>
      <trkpt lat="50.1754" lon="4.0935">
        <ele>171.73</ele>
        <time>2012-08-17T07:25:58Z</time>
      </trkpt>
      <trkpt lat="50.17551" lon="4.09354">
        <ele>171.73</ele>
        <time>2012-08-17T07:26:02Z</time>
      </trkpt>
      <trkpt lat="50.17563" lon="4.09361">
        <ele>172.21</ele>
        <time>2012-08-17T07:26:07Z</time>
      </trkpt>
      <trkpt lat="50.17575" lon="4.09369">
        <ele>172.21</ele>
        <time>2012-08-17T07:26:11Z</time>
      </trkpt>
      <trkpt lat="50.17584" lon="4.0938">
        <ele>172.21</ele>
        <time>2012-08-17T07:26:15Z</time>
      </trkpt>
      <trkpt lat="50.17588" lon="4.09395">
        <ele>172.21</ele>
        <time>2012-08-17T07:26:19Z</time>
      </trkpt>
      <trkpt lat="50.17587" lon="4.09411">
        <ele>172.69</ele>
        <time>2012-08-17T07:26:23Z</time>
      </trkpt>
      <trkpt lat="50.17587" lon="4.09428">
        <ele>172.69</ele>
        <time>2012-08-17T07:26:27Z</time>
      </trkpt>
      <trkpt lat="50.17589" lon="4.09446">
        <ele>172.69</ele>
        <time>2012-08-17T07:26:32Z</time>
      </trkpt>
      <trkpt lat="50.17598" lon="4.09457">
        <ele>172.69</ele>
        <time>2012-08-17T07:26:36Z</time>
      </trkpt>
      <trkpt lat="50.17605" lon="4.0947">
        <ele>173.17</ele>
        <time>2012-08-17T07:26:40Z</time>
      </trkpt>
      <trkpt lat="50.1761" lon="4.09487">
        <ele>173.17</ele>
        <time>2012-08-17T07:26:44Z</time>
      </trkpt>
      <trkpt lat="50.17614" lon="4.09505">
        <ele>173.17</ele>
        <time>2012-08-17T07:26:48Z</time>
      </trkpt>
      <trkpt lat="50.17618" lon="4.09522">
        <ele>174.14</ele>
        <time>2012-08-17T07:26:52Z</time>
      </trkpt>
      <trkpt lat="50.17622" lon="4.0954">
        <ele>174.62</ele>
        <time>2012-08-17T07:26:56Z</time>
      </trkpt>
      <trkpt lat="50.17631" lon="4.09562">
        <ele>174.62</ele>
        <time>2012-08-17T07:26:59Z</time>
      </trkpt>
      <trkpt lat="50.17638" lon="4.09583">
        <ele>174.62</ele>
        <time>2012-08-17T07:27:03Z</time>
      </trkpt>
      <trkpt lat="50.17642" lon="4.09601">
        <ele>175.58</ele>
        <time>2012-08-17T07:27:07Z</time>
      </trkpt>
      <trkpt lat="50.17646" lon="4.09618">
        <ele>175.58</ele>
        <time>2012-08-17T07:27:11Z</time>
      </trkpt>
      <trkpt lat="50.17651" lon="4.09635">
        <ele>176.06</ele>
        <time>2012-08-17T07:27:15Z</time>
      </trkpt>
      <trkpt lat="50.17655" lon="4.09653">
        <ele>176.54</ele>
        <time>2012-08-17T07:27:19Z</time>
      </trkpt>
      <trkpt lat="50.17661" lon="4.0967">
        <ele>176.54</ele>
        <time>2012-08-17T07:27:23Z</time>
      </trkpt>
      <trkpt lat="50.17665" lon="4.09687">
        <ele>177.02</ele>
        <time>2012-08-17T07:27:28Z</time>
      </trkpt>
      <trkpt lat="50.17675" lon="4.09702">
        <ele>177.5</ele>
        <time>2012-08-17T07:27:49Z</time>
      </trkpt>
      <trkpt lat="50.17687" lon="4.09709">
        <ele>177.5</ele>
        <time>2012-08-17T07:27:53Z</time>
      </trkpt>
      <trkpt lat="50.17699" lon="4.09712">
        <ele>177.98</ele>
        <time>2012-08-17T07:27:57Z</time>
      </trkpt>
      <trkpt lat="50.1771" lon="4.09711">
        <ele>176.06</ele>
        <time>2012-08-17T07:28:00Z</time>
      </trkpt>
      <trkpt lat="50.17721" lon="4.09713">
        <ele>176.06</ele>
        <time>2012-08-17T07:28:04Z</time>
      </trkpt>
      <trkpt lat="50.1773" lon="4.09721">
        <ele>176.06</ele>
        <time>2012-08-17T07:28:08Z</time>
      </trkpt>
      <trkpt lat="50.17741" lon="4.09724">
        <ele>175.58</ele>
        <time>2012-08-17T07:28:12Z</time>
      </trkpt>
      <trkpt lat="50.17752" lon="4.09731">
        <ele>176.06</ele>
        <time>2012-08-17T07:28:16Z</time>
      </trkpt>
      <trkpt lat="50.17758" lon="4.09748">
        <ele>176.06</ele>
        <time>2012-08-17T07:28:20Z</time>
      </trkpt>
      <trkpt lat="50.17762" lon="4.09761">
        <ele>175.58</ele>
        <time>2012-08-17T07:28:23Z</time>
      </trkpt>
      <trkpt lat="50.17769" lon="4.09775">
        <ele>176.06</ele>
        <time>2012-08-17T07:28:27Z</time>
      </trkpt>
      <trkpt lat="50.17777" lon="4.09784">
        <ele>176.54</ele>
        <time>2012-08-17T07:28:31Z</time>
      </trkpt>
      <trkpt lat="50.1779" lon="4.09791">
        <ele>176.06</ele>
        <time>2012-08-17T07:28:35Z</time>
      </trkpt>
      <trkpt lat="50.17804" lon="4.09797">
        <ele>175.1</ele>
        <time>2012-08-17T07:28:39Z</time>
      </trkpt>
      <trkpt lat="50.17822" lon="4.09811">
        <ele>174.62</ele>
        <time>2012-08-17T07:28:43Z</time>
      </trkpt>
      <trkpt lat="50.17836" lon="4.09823">
        <ele>174.62</ele>
        <time>2012-08-17T07:28:46Z</time>
      </trkpt>
      <trkpt lat="50.17843" lon="4.09833">
        <ele>173.66</ele>
        <time>2012-08-17T07:28:48Z</time>
      </trkpt>
      <trkpt lat="50.1785" lon="4.09846">
        <ele>173.17</ele>
        <time>2012-08-17T07:28:50Z</time>
      </trkpt>
      <trkpt lat="50.17856" lon="4.09859">
        <ele>173.17</ele>
        <time>2012-08-17T07:28:52Z</time>
      </trkpt>
      <trkpt lat="50.17863" lon="4.09872">
        <ele>172.69</ele>
        <time>2012-08-17T07:28:54Z</time>
      </trkpt>
      <trkpt lat="50.17869" lon="4.09885">
        <ele>171.73</ele>
        <time>2012-08-17T07:28:56Z</time>
      </trkpt>
      <trkpt lat="50.17875" lon="4.09898">
        <ele>172.21</ele>
        <time>2012-08-17T07:28:58Z</time>
      </trkpt>
      <trkpt lat="50.17881" lon="4.09911">
        <ele>171.73</ele>
        <time>2012-08-17T07:29:00Z</time>
      </trkpt>
      <trkpt lat="50.17886" lon="4.09924">
        <ele>170.77</ele>
        <time>2012-08-17T07:29:02Z</time>
      </trkpt>
      <trkpt lat="50.17892" lon="4.09936">
        <ele>171.73</ele>
        <time>2012-08-17T07:29:04Z</time>
      </trkpt>
      <trkpt lat="50.17897" lon="4.0995">
        <ele>171.73</ele>
        <time>2012-08-17T07:29:06Z</time>
      </trkpt>
      <trkpt lat="50.17901" lon="4.09963">
        <ele>171.73</ele>
        <time>2012-08-17T07:29:08Z</time>
      </trkpt>
      <trkpt lat="50.17904" lon="4.09977">
        <ele>171.73</ele>
        <time>2012-08-17T07:29:10Z</time>
      </trkpt>
      <trkpt lat="50.17907" lon="4.09997">
        <ele>171.73</ele>
        <time>2012-08-17T07:29:13Z</time>
      </trkpt>
      <trkpt lat="50.17909" lon="4.10017">
        <ele>172.21</ele>
        <time>2012-08-17T07:29:16Z</time>
      </trkpt>
      <trkpt lat="50.17909" lon="4.10037">
        <ele>171.25</ele>
        <time>2012-08-17T07:29:19Z</time>
      </trkpt>
      <trkpt lat="50.17911" lon="4.10054">
        <ele>171.25</ele>
        <time>2012-08-17T07:29:22Z</time>
      </trkpt>
      <trkpt lat="50.17914" lon="4.10072">
        <ele>171.25</ele>
        <time>2012-08-17T07:29:25Z</time>
      </trkpt>
      <trkpt lat="50.1792" lon="4.10089">
        <ele>171.73</ele>
        <time>2012-08-17T07:29:28Z</time>
      </trkpt>
      <trkpt lat="50.17926" lon="4.10104">
        <ele>171.25</ele>
        <time>2012-08-17T07:29:31Z</time>
      </trkpt>
      <trkpt lat="50.17935" lon="4.10115">
        <ele>171.73</ele>
        <time>2012-08-17T07:29:34Z</time>
      </trkpt>
      <trkpt lat="50.17944" lon="4.10124">
        <ele>172.21</ele>
        <time>2012-08-17T07:29:37Z</time>
      </trkpt>
      <trkpt lat="50.17954" lon="4.1013">
        <ele>172.69</ele>
        <time>2012-08-17T07:29:40Z</time>
      </trkpt>
      <trkpt lat="50.17963" lon="4.10134">
        <ele>173.17</ele>
        <time>2012-08-17T07:29:44Z</time>
      </trkpt>
      <trkpt lat="50.17962" lon="4.10143">
        <ele>174.14</ele>
        <time>2012-08-17T07:31:24Z</time>
      </trkpt>
      <trkpt lat="50.17965" lon="4.10157">
        <ele>174.62</ele>
        <time>2012-08-17T07:31:28Z</time>
      </trkpt>
      <trkpt lat="50.17966" lon="4.10173">
        <ele>174.62</ele>
        <time>2012-08-17T07:31:32Z</time>
      </trkpt>
      <trkpt lat="50.17967" lon="4.10191">
        <ele>175.58</ele>
        <time>2012-08-17T07:31:36Z</time>
      </trkpt>
      <trkpt lat="50.17967" lon="4.10209">
        <ele>176.06</ele>
        <time>2012-08-17T07:31:40Z</time>
      </trkpt>
      <trkpt lat="50.17967" lon="4.10223">
        <ele>176.54</ele>
        <time>2012-08-17T07:31:43Z</time>
      </trkpt>
      <trkpt lat="50.17967" lon="4.10241">
        <ele>177.02</ele>
        <time>2012-08-17T07:31:47Z</time>
      </trkpt>
      <trkpt lat="50.17965" lon="4.10259">
        <ele>177.5</ele>
        <time>2012-08-17T07:31:51Z</time>
      </trkpt>
      <trkpt lat="50.17964" lon="4.10274">
        <ele>177.98</ele>
        <time>2012-08-17T07:31:54Z</time>
      </trkpt>
      <trkpt lat="50.17964" lon="4.10289">
        <ele>177.98</ele>
        <time>2012-08-17T07:31:57Z</time>
      </trkpt>
      <trkpt lat="50.17963" lon="4.10305">
        <ele>178.94</ele>
        <time>2012-08-17T07:32:00Z</time>
      </trkpt>
      <trkpt lat="50.17963" lon="4.10318">
        <ele>178.94</ele>
        <time>2012-08-17T07:32:03Z</time>
      </trkpt>
      <trkpt lat="50.17965" lon="4.10337">
        <ele>179.42</ele>
        <time>2012-08-17T07:32:07Z</time>
      </trkpt>
      <trkpt lat="50.17966" lon="4.10352">
        <ele>179.9</ele>
        <time>2012-08-17T07:32:10Z</time>
      </trkpt>
      <trkpt lat="50.17967" lon="4.10367">
        <ele>179.9</ele>
        <time>2012-08-17T07:32:13Z</time>
      </trkpt>
      <trkpt lat="50.17967" lon="4.10382">
        <ele>179.9</ele>
        <time>2012-08-17T07:32:16Z</time>
      </trkpt>
      <trkpt lat="50.17969" lon="4.10396">
        <ele>180.38</ele>
        <time>2012-08-17T07:32:19Z</time>
      </trkpt>
      <trkpt lat="50.17971" lon="4.10411">
        <ele>180.87</ele>
        <time>2012-08-17T07:32:22Z</time>
      </trkpt>
      <trkpt lat="50.17973" lon="4.10425">
        <ele>181.83</ele>
        <time>2012-08-17T07:32:25Z</time>
      </trkpt>
      <trkpt lat="50.17975" lon="4.10439">
        <ele>181.83</ele>
        <time>2012-08-17T07:32:28Z</time>
      </trkpt>
      <trkpt lat="50.17978" lon="4.10457">
        <ele>181.83</ele>
        <time>2012-08-17T07:32:32Z</time>
      </trkpt>
      <trkpt lat="50.17979" lon="4.1047">
        <ele>182.31</ele>
        <time>2012-08-17T07:32:35Z</time>
      </trkpt>
      <trkpt lat="50.17981" lon="4.10485">
        <ele>182.79</ele>
        <time>2012-08-17T07:32:38Z</time>
      </trkpt>
      <trkpt lat="50.17984" lon="4.10503">
        <ele>182.79</ele>
        <time>2012-08-17T07:32:42Z</time>
      </trkpt>
      <trkpt lat="50.17987" lon="4.10517">
        <ele>183.27</ele>
        <time>2012-08-17T07:32:45Z</time>
      </trkpt>
      <trkpt lat="50.1799" lon="4.10531">
        <ele>183.75</ele>
        <time>2012-08-17T07:32:48Z</time>
      </trkpt>
      <trkpt lat="50.17992" lon="4.10546">
        <ele>184.23</ele>
        <time>2012-08-17T07:32:51Z</time>
      </trkpt>
      <trkpt lat="50.17996" lon="4.10564">
        <ele>184.23</ele>
        <time>2012-08-17T07:32:55Z</time>
      </trkpt>
      <trkpt lat="50.17998" lon="4.10578">
        <ele>184.23</ele>
        <time>2012-08-17T07:32:58Z</time>
      </trkpt>
      <trkpt lat="50.18" lon="4.10591">
        <ele>184.23</ele>
        <time>2012-08-17T07:33:01Z</time>
      </trkpt>
      <trkpt lat="50.18002" lon="4.10605">
        <ele>185.19</ele>
        <time>2012-08-17T07:33:04Z</time>
      </trkpt>
      <trkpt lat="50.18005" lon="4.10623">
        <ele>185.67</ele>
        <time>2012-08-17T07:33:08Z</time>
      </trkpt>
      <trkpt lat="50.18007" lon="4.10637">
        <ele>185.67</ele>
        <time>2012-08-17T07:33:11Z</time>
      </trkpt>
      <trkpt lat="50.1801" lon="4.10651">
        <ele>185.67</ele>
        <time>2012-08-17T07:33:14Z</time>
      </trkpt>
      <trkpt lat="50.18012" lon="4.10669">
        <ele>186.15</ele>
        <time>2012-08-17T07:33:18Z</time>
      </trkpt>
      <trkpt lat="50.18015" lon="4.10686">
        <ele>186.15</ele>
        <time>2012-08-17T07:33:22Z</time>
      </trkpt>
      <trkpt lat="50.18018" lon="4.10703">
        <ele>187.11</ele>
        <time>2012-08-17T07:33:26Z</time>
      </trkpt>
      <trkpt lat="50.18021" lon="4.10721">
        <ele>187.59</ele>
        <time>2012-08-17T07:33:30Z</time>
      </trkpt>
      <trkpt lat="50.18024" lon="4.10738">
        <ele>188.08</ele>
        <time>2012-08-17T07:33:34Z</time>
      </trkpt>
      <trkpt lat="50.18027" lon="4.10756">
        <ele>187.59</ele>
        <time>2012-08-17T07:33:38Z</time>
      </trkpt>
      <trkpt lat="50.1803" lon="4.10772">
        <ele>188.08</ele>
        <time>2012-08-17T07:33:42Z</time>
      </trkpt>
      <trkpt lat="50.18033" lon="4.10788">
        <ele>189.04</ele>
        <time>2012-08-17T07:33:46Z</time>
      </trkpt>
      <trkpt lat="50.18035" lon="4.10804">
        <ele>189.04</ele>
        <time>2012-08-17T07:33:50Z</time>
      </trkpt>
      <trkpt lat="50.18039" lon="4.10821">
        <ele>189.52</ele>
        <time>2012-08-17T07:33:54Z</time>
      </trkpt>
      <trkpt lat="50.18042" lon="4.10834">
        <ele>190</ele>
        <time>2012-08-17T07:33:57Z</time>
      </trkpt>
      <trkpt lat="50.18044" lon="4.10853">
        <ele>189.52</ele>
        <time>2012-08-17T07:34:01Z</time>
      </trkpt>
      <trkpt lat="50.18047" lon="4.10869">
        <ele>190</ele>
        <time>2012-08-17T07:34:05Z</time>
      </trkpt>
      <trkpt lat="50.18051" lon="4.10886">
        <ele>191.44</ele>
        <time>2012-08-17T07:34:09Z</time>
      </trkpt>
      <trkpt lat="50.18056" lon="4.10903">
        <ele>190.96</ele>
        <time>2012-08-17T07:34:13Z</time>
      </trkpt>
      <trkpt lat="50.1806" lon="4.10918">
        <ele>190.96</ele>
        <time>2012-08-17T07:34:17Z</time>
      </trkpt>
      <trkpt lat="50.18066" lon="4.10933">
        <ele>190.96</ele>
        <time>2012-08-17T07:34:21Z</time>
      </trkpt>
      <trkpt lat="50.18071" lon="4.10949">
        <ele>191.44</ele>
        <time>2012-08-17T07:34:25Z</time>
      </trkpt>
      <trkpt lat="50.18075" lon="4.10963">
        <ele>192.4</ele>
        <time>2012-08-17T07:34:29Z</time>
      </trkpt>
      <trkpt lat="50.1808" lon="4.10979">
        <ele>192.88</ele>
        <time>2012-08-17T07:34:33Z</time>
      </trkpt>
      <trkpt lat="50.18087" lon="4.10995">
        <ele>192.4</ele>
        <time>2012-08-17T07:34:37Z</time>
      </trkpt>
      <trkpt lat="50.18091" lon="4.11007">
        <ele>192.88</ele>
        <time>2012-08-17T07:34:40Z</time>
      </trkpt>
      <trkpt lat="50.18095" lon="4.1102">
        <ele>192.88</ele>
        <time>2012-08-17T07:34:43Z</time>
      </trkpt>
      <trkpt lat="50.18098" lon="4.11034">
        <ele>193.36</ele>
        <time>2012-08-17T07:34:47Z</time>
      </trkpt>
      <trkpt lat="50.18099" lon="4.11046">
        <ele>192.88</ele>
        <time>2012-08-17T07:34:55Z</time>
      </trkpt>
      <trkpt lat="50.18102" lon="4.11054">
        <ele>191.44</ele>
        <time>2012-08-17T07:37:23Z</time>
      </trkpt>
      <trkpt lat="50.18103" lon="4.11072">
        <ele>194.32</ele>
        <time>2012-08-17T07:37:27Z</time>
      </trkpt>
      <trkpt lat="50.18105" lon="4.11091">
        <ele>194.32</ele>
        <time>2012-08-17T07:37:31Z</time>
      </trkpt>
      <trkpt lat="50.18108" lon="4.11111">
        <ele>193.36</ele>
        <time>2012-08-17T07:37:35Z</time>
      </trkpt>
      <trkpt lat="50.18109" lon="4.11125">
        <ele>193.36</ele>
        <time>2012-08-17T07:37:38Z</time>
      </trkpt>
      <trkpt lat="50.18112" lon="4.11144">
        <ele>193.36</ele>
        <time>2012-08-17T07:37:42Z</time>
      </trkpt>
      <trkpt lat="50.18114" lon="4.11158">
        <ele>193.36</ele>
        <time>2012-08-17T07:37:45Z</time>
      </trkpt>
      <trkpt lat="50.18116" lon="4.11173">
        <ele>193.36</ele>
        <time>2012-08-17T07:37:48Z</time>
      </trkpt>
      <trkpt lat="50.18119" lon="4.11188">
        <ele>192.88</ele>
        <time>2012-08-17T07:37:51Z</time>
      </trkpt>
      <trkpt lat="50.18122" lon="4.11204">
        <ele>192.88</ele>
        <time>2012-08-17T07:37:54Z</time>
      </trkpt>
      <trkpt lat="50.18126" lon="4.1122">
        <ele>191.44</ele>
        <time>2012-08-17T07:37:57Z</time>
      </trkpt>
      <trkpt lat="50.18129" lon="4.11239">
        <ele>190</ele>
        <time>2012-08-17T07:38:00Z</time>
      </trkpt>
      <trkpt lat="50.18134" lon="4.11258">
        <ele>190</ele>
        <time>2012-08-17T07:38:03Z</time>
      </trkpt>
      <trkpt lat="50.18136" lon="4.11273">
        <ele>189.52</ele>
        <time>2012-08-17T07:38:05Z</time>
      </trkpt>
      <trkpt lat="50.18139" lon="4.1129">
        <ele>189.04</ele>
        <time>2012-08-17T07:38:07Z</time>
      </trkpt>
      <trkpt lat="50.18142" lon="4.11308">
        <ele>188.08</ele>
        <time>2012-08-17T07:38:09Z</time>
      </trkpt>
      <trkpt lat="50.18145" lon="4.11324">
        <ele>187.11</ele>
        <time>2012-08-17T07:38:11Z</time>
      </trkpt>
      <trkpt lat="50.18147" lon="4.11338">
        <ele>186.15</ele>
        <time>2012-08-17T07:38:13Z</time>
      </trkpt>
      <trkpt lat="50.18148" lon="4.11352">
        <ele>187.11</ele>
        <time>2012-08-17T07:38:16Z</time>
      </trkpt>
      <trkpt lat="50.1815" lon="4.11364">
        <ele>186.15</ele>
        <time>2012-08-17T07:39:25Z</time>
      </trkpt>
      <trkpt lat="50.18142" lon="4.11375">
        <ele>185.67</ele>
        <time>2012-08-17T07:39:30Z</time>
      </trkpt>
      <trkpt lat="50.18133" lon="4.11382">
        <ele>184.23</ele>
        <time>2012-08-17T07:39:34Z</time>
      </trkpt>
      <trkpt lat="50.18127" lon="4.11395">
        <ele>185.19</ele>
        <time>2012-08-17T07:41:02Z</time>
      </trkpt>
      <trkpt lat="50.18131" lon="4.1141">
        <ele>182.79</ele>
        <time>2012-08-17T07:41:05Z</time>
      </trkpt>
      <trkpt lat="50.18136" lon="4.11426">
        <ele>185.67</ele>
        <time>2012-08-17T07:41:08Z</time>
      </trkpt>
      <trkpt lat="50.1814" lon="4.11441">
        <ele>183.75</ele>
        <time>2012-08-17T07:41:11Z</time>
      </trkpt>
      <trkpt lat="50.18144" lon="4.11455">
        <ele>184.71</ele>
        <time>2012-08-17T07:41:14Z</time>
      </trkpt>
      <trkpt lat="50.18149" lon="4.1147">
        <ele>184.23</ele>
        <time>2012-08-17T07:41:17Z</time>
      </trkpt>
      <trkpt lat="50.18154" lon="4.11484">
        <ele>184.23</ele>
        <time>2012-08-17T07:41:20Z</time>
      </trkpt>
      <trkpt lat="50.18158" lon="4.11497">
        <ele>184.71</ele>
        <time>2012-08-17T07:41:23Z</time>
      </trkpt>
      <trkpt lat="50.18164" lon="4.11513">
        <ele>186.15</ele>
        <time>2012-08-17T07:41:27Z</time>
      </trkpt>
      <trkpt lat="50.18168" lon="4.11527">
        <ele>188.08</ele>
        <time>2012-08-17T07:41:30Z</time>
      </trkpt>
      <trkpt lat="50.18172" lon="4.1154">
        <ele>188.56</ele>
        <time>2012-08-17T07:41:33Z</time>
      </trkpt>
      <trkpt lat="50.18176" lon="4.11552">
        <ele>189.52</ele>
        <time>2012-08-17T07:41:36Z</time>
      </trkpt>
      <trkpt lat="50.18182" lon="4.11567">
        <ele>190.48</ele>
        <time>2012-08-17T07:41:40Z</time>
      </trkpt>
      <trkpt lat="50.18188" lon="4.11583">
        <ele>190.48</ele>
        <time>2012-08-17T07:41:44Z</time>
      </trkpt>
      <trkpt lat="50.18192" lon="4.11597">
        <ele>190</ele>
        <time>2012-08-17T07:41:48Z</time>
      </trkpt>
      <trkpt lat="50.1819" lon="4.1161">
        <ele>192.4</ele>
        <time>2012-08-17T07:41:54Z</time>
      </trkpt>
      <trkpt lat="50.18187" lon="4.11622">
        <ele>194.32</ele>
        <time>2012-08-17T07:43:31Z</time>
      </trkpt>
      <trkpt lat="50.18178" lon="4.11634">
        <ele>191.92</ele>
        <time>2012-08-17T07:43:35Z</time>
      </trkpt>
      <trkpt lat="50.18171" lon="4.11649">
        <ele>193.36</ele>
        <time>2012-08-17T07:43:39Z</time>
      </trkpt>
      <trkpt lat="50.18165" lon="4.11663">
        <ele>192.4</ele>
        <time>2012-08-17T07:43:42Z</time>
      </trkpt>
      <trkpt lat="50.1816" lon="4.11677">
        <ele>193.84</ele>
        <time>2012-08-17T07:43:45Z</time>
      </trkpt>
      <trkpt lat="50.18155" lon="4.11692">
        <ele>194.32</ele>
        <time>2012-08-17T07:43:48Z</time>
      </trkpt>
      <trkpt lat="50.18152" lon="4.11706">
        <ele>194.32</ele>
        <time>2012-08-17T07:43:51Z</time>
      </trkpt>
      <trkpt lat="50.18148" lon="4.11722">
        <ele>192.88</ele>
        <time>2012-08-17T07:43:54Z</time>
      </trkpt>
      <trkpt lat="50.18145" lon="4.11736">
        <ele>193.84</ele>
        <time>2012-08-17T07:43:57Z</time>
      </trkpt>
      <trkpt lat="50.18142" lon="4.11751">
        <ele>194.8</ele>
        <time>2012-08-17T07:44:00Z</time>
      </trkpt>
      <trkpt lat="50.18138" lon="4.11767">
        <ele>193.84</ele>
        <time>2012-08-17T07:44:03Z</time>
      </trkpt>
      <trkpt lat="50.18134" lon="4.11783">
        <ele>195.77</ele>
        <time>2012-08-17T07:44:06Z</time>
      </trkpt>
      <trkpt lat="50.18127" lon="4.11798">
        <ele>194.8</ele>
        <time>2012-08-17T07:44:09Z</time>
      </trkpt>
      <trkpt lat="50.1812" lon="4.11813">
        <ele>194.8</ele>
        <time>2012-08-17T07:44:12Z</time>
      </trkpt>
      <trkpt lat="50.18114" lon="4.11825">
        <ele>193.84</ele>
        <time>2012-08-17T07:44:15Z</time>
      </trkpt>
      <trkpt lat="50.18107" lon="4.11836">
        <ele>194.8</ele>
        <time>2012-08-17T07:44:18Z</time>
      </trkpt>
      <trkpt lat="50.18099" lon="4.11848">
        <ele>193.84</ele>
        <time>2012-08-17T07:44:21Z</time>
      </trkpt>
      <trkpt lat="50.18092" lon="4.1186">
        <ele>194.32</ele>
        <time>2012-08-17T07:44:24Z</time>
      </trkpt>
      <trkpt lat="50.18085" lon="4.11871">
        <ele>195.77</ele>
        <time>2012-08-17T07:44:27Z</time>
      </trkpt>
      <trkpt lat="50.18078" lon="4.11882">
        <ele>194.8</ele>
        <time>2012-08-17T07:44:30Z</time>
      </trkpt>
      <trkpt lat="50.18071" lon="4.11897">
        <ele>195.28</ele>
        <time>2012-08-17T07:44:34Z</time>
      </trkpt>
      <trkpt lat="50.18063" lon="4.11911">
        <ele>195.77</ele>
        <time>2012-08-17T07:44:38Z</time>
      </trkpt>
      <trkpt lat="50.18055" lon="4.11926">
        <ele>197.21</ele>
        <time>2012-08-17T07:44:42Z</time>
      </trkpt>
      <trkpt lat="50.18049" lon="4.11941">
        <ele>198.65</ele>
        <time>2012-08-17T07:44:46Z</time>
      </trkpt>
      <trkpt lat="50.18049" lon="4.11947">
        <ele>199.13</ele>
        <time>2012-08-17T07:45:14Z</time>
      </trkpt>
      <trkpt lat="50.18048" lon="4.11963">
        <ele>199.61</ele>
        <time>2012-08-17T07:47:08Z</time>
      </trkpt>
      <trkpt lat="50.1805" lon="4.11977">
        <ele>199.61</ele>
        <time>2012-08-17T07:47:12Z</time>
      </trkpt>
      <trkpt lat="50.18052" lon="4.11994">
        <ele>201.05</ele>
        <time>2012-08-17T07:47:17Z</time>
      </trkpt>
      <trkpt lat="50.18055" lon="4.12012">
        <ele>201.53</ele>
        <time>2012-08-17T07:47:22Z</time>
      </trkpt>
      <trkpt lat="50.18059" lon="4.12027">
        <ele>202.98</ele>
        <time>2012-08-17T07:47:27Z</time>
      </trkpt>
      <trkpt lat="50.18065" lon="4.12042">
        <ele>202.49</ele>
        <time>2012-08-17T07:47:32Z</time>
      </trkpt>
      <trkpt lat="50.1807" lon="4.12055">
        <ele>202.49</ele>
        <time>2012-08-17T07:47:36Z</time>
      </trkpt>
      <trkpt lat="50.18074" lon="4.12068">
        <ele>202.49</ele>
        <time>2012-08-17T07:47:40Z</time>
      </trkpt>
      <trkpt lat="50.18079" lon="4.12082">
        <ele>202.49</ele>
        <time>2012-08-17T07:47:44Z</time>
      </trkpt>
      <trkpt lat="50.18084" lon="4.12095">
        <ele>202.49</ele>
        <time>2012-08-17T07:47:48Z</time>
      </trkpt>
      <trkpt lat="50.18088" lon="4.12108">
        <ele>203.46</ele>
        <time>2012-08-17T07:47:52Z</time>
      </trkpt>
      <trkpt lat="50.18092" lon="4.12121">
        <ele>203.46</ele>
        <time>2012-08-17T07:47:56Z</time>
      </trkpt>
      <trkpt lat="50.18096" lon="4.12135">
        <ele>204.42</ele>
        <time>2012-08-17T07:48:00Z</time>
      </trkpt>
      <trkpt lat="50.18099" lon="4.12149">
        <ele>203.94</ele>
        <time>2012-08-17T07:48:04Z</time>
      </trkpt>
      <trkpt lat="50.18102" lon="4.12163">
        <ele>203.94</ele>
        <time>2012-08-17T07:48:08Z</time>
      </trkpt>
      <trkpt lat="50.18104" lon="4.12181">
        <ele>204.42</ele>
        <time>2012-08-17T07:48:13Z</time>
      </trkpt>
      <trkpt lat="50.18108" lon="4.12197">
        <ele>204.42</ele>
        <time>2012-08-17T07:48:18Z</time>
      </trkpt>
      <trkpt lat="50.18111" lon="4.12214">
        <ele>205.38</ele>
        <time>2012-08-17T07:48:23Z</time>
      </trkpt>
      <trkpt lat="50.18115" lon="4.1223">
        <ele>205.86</ele>
        <time>2012-08-17T07:48:28Z</time>
      </trkpt>
      <trkpt lat="50.18119" lon="4.12246">
        <ele>204.9</ele>
        <time>2012-08-17T07:48:33Z</time>
      </trkpt>
      <trkpt lat="50.18123" lon="4.1226">
        <ele>205.86</ele>
        <time>2012-08-17T07:48:38Z</time>
      </trkpt>
      <trkpt lat="50.18128" lon="4.12272">
        <ele>206.82</ele>
        <time>2012-08-17T07:48:43Z</time>
      </trkpt>
      <trkpt lat="50.18132" lon="4.12286">
        <ele>207.78</ele>
        <time>2012-08-17T07:48:49Z</time>
      </trkpt>
      <trkpt lat="50.1814" lon="4.12298">
        <ele>206.82</ele>
        <time>2012-08-17T07:48:55Z</time>
      </trkpt>
      <trkpt lat="50.18146" lon="4.1231">
        <ele>207.3</ele>
        <time>2012-08-17T07:49:01Z</time>
      </trkpt>
      <trkpt lat="50.1815" lon="4.12321">
        <ele>207.78</ele>
        <time>2012-08-17T07:51:43Z</time>
      </trkpt>
      <trkpt lat="50.18153" lon="4.12337">
        <ele>208.74</ele>
        <time>2012-08-17T07:51:47Z</time>
      </trkpt>
      <trkpt lat="50.18158" lon="4.12354">
        <ele>208.26</ele>
        <time>2012-08-17T07:51:51Z</time>
      </trkpt>
      <trkpt lat="50.18162" lon="4.1237">
        <ele>208.26</ele>
        <time>2012-08-17T07:51:55Z</time>
      </trkpt>
      <trkpt lat="50.18165" lon="4.12385">
        <ele>208.74</ele>
        <time>2012-08-17T07:51:59Z</time>
      </trkpt>
      <trkpt lat="50.18167" lon="4.124">
        <ele>208.26</ele>
        <time>2012-08-17T07:52:03Z</time>
      </trkpt>
      <trkpt lat="50.18171" lon="4.12416">
        <ele>207.78</ele>
        <time>2012-08-17T07:52:07Z</time>
      </trkpt>
      <trkpt lat="50.18174" lon="4.12434">
        <ele>208.74</ele>
        <time>2012-08-17T07:52:11Z</time>
      </trkpt>
      <trkpt lat="50.18179" lon="4.12454">
        <ele>207.78</ele>
        <time>2012-08-17T07:52:15Z</time>
      </trkpt>
      <trkpt lat="50.18186" lon="4.12471">
        <ele>208.26</ele>
        <time>2012-08-17T07:52:19Z</time>
      </trkpt>
      <trkpt lat="50.18194" lon="4.12486">
        <ele>209.22</ele>
        <time>2012-08-17T07:52:23Z</time>
      </trkpt>
      <trkpt lat="50.18202" lon="4.12499">
        <ele>208.74</ele>
        <time>2012-08-17T07:52:27Z</time>
      </trkpt>
      <trkpt lat="50.1821" lon="4.12513">
        <ele>210.19</ele>
        <time>2012-08-17T07:52:31Z</time>
      </trkpt>
      <trkpt lat="50.18217" lon="4.12528">
        <ele>208.74</ele>
        <time>2012-08-17T07:52:35Z</time>
      </trkpt>
      <trkpt lat="50.18223" lon="4.1254">
        <ele>209.22</ele>
        <time>2012-08-17T07:52:38Z</time>
      </trkpt>
      <trkpt lat="50.18229" lon="4.12552">
        <ele>208.26</ele>
        <time>2012-08-17T07:52:41Z</time>
      </trkpt>
      <trkpt lat="50.18235" lon="4.12564">
        <ele>208.26</ele>
        <time>2012-08-17T07:52:44Z</time>
      </trkpt>
      <trkpt lat="50.1824" lon="4.12579">
        <ele>207.78</ele>
        <time>2012-08-17T07:52:47Z</time>
      </trkpt>
      <trkpt lat="50.18243" lon="4.12595">
        <ele>207.3</ele>
        <time>2012-08-17T07:52:50Z</time>
      </trkpt>
      <trkpt lat="50.18246" lon="4.12611">
        <ele>207.78</ele>
        <time>2012-08-17T07:52:53Z</time>
      </trkpt>
      <trkpt lat="50.18247" lon="4.12627">
        <ele>206.82</ele>
        <time>2012-08-17T07:52:56Z</time>
      </trkpt>
      <trkpt lat="50.18248" lon="4.12641">
        <ele>206.82</ele>
        <time>2012-08-17T07:52:59Z</time>
      </trkpt>
      <trkpt lat="50.18248" lon="4.12657">
        <ele>204.9</ele>
        <time>2012-08-17T07:53:02Z</time>
      </trkpt>
      <trkpt lat="50.18248" lon="4.1267">
        <ele>210.19</ele>
        <time>2012-08-17T07:53:05Z</time>
      </trkpt>
      <trkpt lat="50.18248" lon="4.12689">
        <ele>210.67</ele>
        <time>2012-08-17T07:53:09Z</time>
      </trkpt>
      <trkpt lat="50.18247" lon="4.12706">
        <ele>207.3</ele>
        <time>2012-08-17T07:53:13Z</time>
      </trkpt>
      <trkpt lat="50.18247" lon="4.12724">
        <ele>209.7</ele>
        <time>2012-08-17T07:53:17Z</time>
      </trkpt>
      <trkpt lat="50.18247" lon="4.12741">
        <ele>210.67</ele>
        <time>2012-08-17T07:53:21Z</time>
      </trkpt>
      <trkpt lat="50.18246" lon="4.12759">
        <ele>209.22</ele>
        <time>2012-08-17T07:53:25Z</time>
      </trkpt>
      <trkpt lat="50.18245" lon="4.12776">
        <ele>214.03</ele>
        <time>2012-08-17T07:53:29Z</time>
      </trkpt>
      <trkpt lat="50.18244" lon="4.12792">
        <ele>211.15</ele>
        <time>2012-08-17T07:53:33Z</time>
      </trkpt>
      <trkpt lat="50.18244" lon="4.12808">
        <ele>212.59</ele>
        <time>2012-08-17T07:53:37Z</time>
      </trkpt>
      <trkpt lat="50.18243" lon="4.12826">
        <ele>211.15</ele>
        <time>2012-08-17T07:53:41Z</time>
      </trkpt>
      <trkpt lat="50.18242" lon="4.12843">
        <ele>212.11</ele>
        <time>2012-08-17T07:53:45Z</time>
      </trkpt>
      <trkpt lat="50.18241" lon="4.1286">
        <ele>214.03</ele>
        <time>2012-08-17T07:53:49Z</time>
      </trkpt>
      <trkpt lat="50.1824" lon="4.12878">
        <ele>211.15</ele>
        <time>2012-08-17T07:53:53Z</time>
      </trkpt>
      <trkpt lat="50.18239" lon="4.12893">
        <ele>212.11</ele>
        <time>2012-08-17T07:53:56Z</time>
      </trkpt>
      <trkpt lat="50.18238" lon="4.12909">
        <ele>212.11</ele>
        <time>2012-08-17T07:53:59Z</time>
      </trkpt>
      <trkpt lat="50.18237" lon="4.12928">
        <ele>211.63</ele>
        <time>2012-08-17T07:54:02Z</time>
      </trkpt>
      <trkpt lat="50.18236" lon="4.12946">
        <ele>211.15</ele>
        <time>2012-08-17T07:54:05Z</time>
      </trkpt>
      <trkpt lat="50.18235" lon="4.12964">
        <ele>210.67</ele>
        <time>2012-08-17T07:54:08Z</time>
      </trkpt>
      <trkpt lat="50.18234" lon="4.1298">
        <ele>212.11</ele>
        <time>2012-08-17T07:54:11Z</time>
      </trkpt>
      <trkpt lat="50.18234" lon="4.12997">
        <ele>212.11</ele>
        <time>2012-08-17T07:54:14Z</time>
      </trkpt>
      <trkpt lat="50.18234" lon="4.13015">
        <ele>210.67</ele>
        <time>2012-08-17T07:54:17Z</time>
      </trkpt>
      <trkpt lat="50.18234" lon="4.13034">
        <ele>210.19</ele>
        <time>2012-08-17T07:54:20Z</time>
      </trkpt>
      <trkpt lat="50.18234" lon="4.13054">
        <ele>211.15</ele>
        <time>2012-08-17T07:54:23Z</time>
      </trkpt>
      <trkpt lat="50.18234" lon="4.13074">
        <ele>212.11</ele>
        <time>2012-08-17T07:54:26Z</time>
      </trkpt>
      <trkpt lat="50.18235" lon="4.13091">
        <ele>211.15</ele>
        <time>2012-08-17T07:54:29Z</time>
      </trkpt>
      <trkpt lat="50.18235" lon="4.13107">
        <ele>210.19</ele>
        <time>2012-08-17T07:54:32Z</time>
      </trkpt>
      <trkpt lat="50.18237" lon="4.13124">
        <ele>210.67</ele>
        <time>2012-08-17T07:54:35Z</time>
      </trkpt>
      <trkpt lat="50.18237" lon="4.13142">
        <ele>211.63</ele>
        <time>2012-08-17T07:54:38Z</time>
      </trkpt>
      <trkpt lat="50.18238" lon="4.13161">
        <ele>211.63</ele>
        <time>2012-08-17T07:54:41Z</time>
      </trkpt>
      <trkpt lat="50.18238" lon="4.13178">
        <ele>210.67</ele>
        <time>2012-08-17T07:54:44Z</time>
      </trkpt>
      <trkpt lat="50.1824" lon="4.13196">
        <ele>210.67</ele>
        <time>2012-08-17T07:54:47Z</time>
      </trkpt>
      <trkpt lat="50.18241" lon="4.13213">
        <ele>211.15</ele>
        <time>2012-08-17T07:54:50Z</time>
      </trkpt>
      <trkpt lat="50.18241" lon="4.13229">
        <ele>209.7</ele>
        <time>2012-08-17T07:54:53Z</time>
      </trkpt>
      <trkpt lat="50.18241" lon="4.13246">
        <ele>211.63</ele>
        <time>2012-08-17T07:54:56Z</time>
      </trkpt>
      <trkpt lat="50.18242" lon="4.13264">
        <ele>210.19</ele>
        <time>2012-08-17T07:54:59Z</time>
      </trkpt>
      <trkpt lat="50.18242" lon="4.13281">
        <ele>210.19</ele>
        <time>2012-08-17T07:55:02Z</time>
      </trkpt>
      <trkpt lat="50.18243" lon="4.13298">
        <ele>210.19</ele>
        <time>2012-08-17T07:55:05Z</time>
      </trkpt>
      <trkpt lat="50.18243" lon="4.13313">
        <ele>210.67</ele>
        <time>2012-08-17T07:55:08Z</time>
      </trkpt>
      <trkpt lat="50.18243" lon="4.13329">
        <ele>210.19</ele>
        <time>2012-08-17T07:55:12Z</time>
      </trkpt>
      <trkpt lat="50.18243" lon="4.13329">
        <ele>210.19</ele>
        <time>2012-08-17T07:55:59Z</time>
      </trkpt>
      <trkpt lat="50.18242" lon="4.13342">
        <ele>211.15</ele>
        <time>2012-08-17T07:56:55Z</time>
      </trkpt>
      <trkpt lat="50.18247" lon="4.1336">
        <ele>211.15</ele>
        <time>2012-08-17T07:57:00Z</time>
      </trkpt>
      <trkpt lat="50.18251" lon="4.13382">
        <ele>210.67</ele>
        <time>2012-08-17T07:57:04Z</time>
      </trkpt>
      <trkpt lat="50.18253" lon="4.13397">
        <ele>211.63</ele>
        <time>2012-08-17T07:57:07Z</time>
      </trkpt>
      <trkpt lat="50.18256" lon="4.13412">
        <ele>212.11</ele>
        <time>2012-08-17T07:57:10Z</time>
      </trkpt>
      <trkpt lat="50.18258" lon="4.13427">
        <ele>212.59</ele>
        <time>2012-08-17T07:57:13Z</time>
      </trkpt>
      <trkpt lat="50.18259" lon="4.13442">
        <ele>212.59</ele>
        <time>2012-08-17T07:57:16Z</time>
      </trkpt>
      <trkpt lat="50.18261" lon="4.13456">
        <ele>213.07</ele>
        <time>2012-08-17T07:57:19Z</time>
      </trkpt>
      <trkpt lat="50.18262" lon="4.13472">
        <ele>212.11</ele>
        <time>2012-08-17T07:57:22Z</time>
      </trkpt>
      <trkpt lat="50.18263" lon="4.13488">
        <ele>212.11</ele>
        <time>2012-08-17T07:57:25Z</time>
      </trkpt>
      <trkpt lat="50.18264" lon="4.13503">
        <ele>213.55</ele>
        <time>2012-08-17T07:57:28Z</time>
      </trkpt>
      <trkpt lat="50.18266" lon="4.13519">
        <ele>212.59</ele>
        <time>2012-08-17T07:57:31Z</time>
      </trkpt>
      <trkpt lat="50.18267" lon="4.13534">
        <ele>213.55</ele>
        <time>2012-08-17T07:57:34Z</time>
      </trkpt>
      <trkpt lat="50.18267" lon="4.13548">
        <ele>214.03</ele>
        <time>2012-08-17T07:57:37Z</time>
      </trkpt>
      <trkpt lat="50.18269" lon="4.13565">
        <ele>215.95</ele>
        <time>2012-08-17T07:57:41Z</time>
      </trkpt>
      <trkpt lat="50.1827" lon="4.13584">
        <ele>215.47</ele>
        <time>2012-08-17T07:57:45Z</time>
      </trkpt>
      <trkpt lat="50.18271" lon="4.13601">
        <ele>215.47</ele>
        <time>2012-08-17T07:57:49Z</time>
      </trkpt>
      <trkpt lat="50.18271" lon="4.13617">
        <ele>217.4</ele>
        <time>2012-08-17T07:57:53Z</time>
      </trkpt>
      <trkpt lat="50.18273" lon="4.13634">
        <ele>215.95</ele>
        <time>2012-08-17T07:58:25Z</time>
      </trkpt>
      <trkpt lat="50.18275" lon="4.13653">
        <ele>216.91</ele>
        <time>2012-08-17T07:58:29Z</time>
      </trkpt>
      <trkpt lat="50.1828" lon="4.13671">
        <ele>217.4</ele>
        <time>2012-08-17T07:58:33Z</time>
      </trkpt>
      <trkpt lat="50.18284" lon="4.13688">
        <ele>216.91</ele>
        <time>2012-08-17T07:58:37Z</time>
      </trkpt>
      <trkpt lat="50.18287" lon="4.13705">
        <ele>218.36</ele>
        <time>2012-08-17T07:58:41Z</time>
      </trkpt>
      <trkpt lat="50.1829" lon="4.13722">
        <ele>218.36</ele>
        <time>2012-08-17T07:58:45Z</time>
      </trkpt>
      <trkpt lat="50.18294" lon="4.13735">
        <ele>219.8</ele>
        <time>2012-08-17T07:58:48Z</time>
      </trkpt>
      <trkpt lat="50.18298" lon="4.13752">
        <ele>219.32</ele>
        <time>2012-08-17T07:58:52Z</time>
      </trkpt>
      <trkpt lat="50.18303" lon="4.13768">
        <ele>219.32</ele>
        <time>2012-08-17T07:58:56Z</time>
      </trkpt>
      <trkpt lat="50.18305" lon="4.13786">
        <ele>219.32</ele>
        <time>2012-08-17T07:59:00Z</time>
      </trkpt>
      <trkpt lat="50.18309" lon="4.13802">
        <ele>220.76</ele>
        <time>2012-08-17T07:59:04Z</time>
      </trkpt>
      <trkpt lat="50.18313" lon="4.13819">
        <ele>220.28</ele>
        <time>2012-08-17T07:59:08Z</time>
      </trkpt>
      <trkpt lat="50.18315" lon="4.13833">
        <ele>221.24</ele>
        <time>2012-08-17T07:59:11Z</time>
      </trkpt>
      <trkpt lat="50.18319" lon="4.13851">
        <ele>219.32</ele>
        <time>2012-08-17T07:59:15Z</time>
      </trkpt>
      <trkpt lat="50.18321" lon="4.13865">
        <ele>220.28</ele>
        <time>2012-08-17T07:59:18Z</time>
      </trkpt>
      <trkpt lat="50.18323" lon="4.13879">
        <ele>220.76</ele>
        <time>2012-08-17T07:59:21Z</time>
      </trkpt>
      <trkpt lat="50.18327" lon="4.13895">
        <ele>220.76</ele>
        <time>2012-08-17T07:59:25Z</time>
      </trkpt>
      <trkpt lat="50.18331" lon="4.13911">
        <ele>220.76</ele>
        <time>2012-08-17T07:59:29Z</time>
      </trkpt>
      <trkpt lat="50.18335" lon="4.13925">
        <ele>220.28</ele>
        <time>2012-08-17T07:59:33Z</time>
      </trkpt>
      <trkpt lat="50.18339" lon="4.1394">
        <ele>219.32</ele>
        <time>2012-08-17T07:59:37Z</time>
      </trkpt>
      <trkpt lat="50.18341" lon="4.1395">
        <ele>220.28</ele>
        <time>2012-08-17T07:59:44Z</time>
      </trkpt>
      <trkpt lat="50.18338" lon="4.13952">
        <ele>221.24</ele>
        <time>2012-08-17T08:01:56Z</time>
      </trkpt>
      <trkpt lat="50.18337" lon="4.13967">
        <ele>220.28</ele>
        <time>2012-08-17T08:02:00Z</time>
      </trkpt>
      <trkpt lat="50.18335" lon="4.13984">
        <ele>220.28</ele>
        <time>2012-08-17T08:02:04Z</time>
      </trkpt>
      <trkpt lat="50.18332" lon="4.14">
        <ele>220.28</ele>
        <time>2012-08-17T08:02:07Z</time>
      </trkpt>
      <trkpt lat="50.18328" lon="4.14015">
        <ele>220.28</ele>
        <time>2012-08-17T08:02:10Z</time>
      </trkpt>
      <trkpt lat="50.18324" lon="4.1403">
        <ele>221.24</ele>
        <time>2012-08-17T08:02:13Z</time>
      </trkpt>
      <trkpt lat="50.1832" lon="4.14045">
        <ele>220.76</ele>
        <time>2012-08-17T08:02:16Z</time>
      </trkpt>
      <trkpt lat="50.18316" lon="4.14059">
        <ele>221.24</ele>
        <time>2012-08-17T08:02:19Z</time>
      </trkpt>
      <trkpt lat="50.18312" lon="4.14073">
        <ele>220.76</ele>
        <time>2012-08-17T08:02:22Z</time>
      </trkpt>
      <trkpt lat="50.18309" lon="4.14087">
        <ele>220.76</ele>
        <time>2012-08-17T08:02:25Z</time>
      </trkpt>
      <trkpt lat="50.18306" lon="4.14101">
        <ele>221.72</ele>
        <time>2012-08-17T08:02:28Z</time>
      </trkpt>
      <trkpt lat="50.18303" lon="4.14117">
        <ele>220.28</ele>
        <time>2012-08-17T08:02:31Z</time>
      </trkpt>
      <trkpt lat="50.18301" lon="4.14133">
        <ele>220.76</ele>
        <time>2012-08-17T08:02:34Z</time>
      </trkpt>
      <trkpt lat="50.18298" lon="4.14149">
        <ele>221.24</ele>
        <time>2012-08-17T08:02:37Z</time>
      </trkpt>
      <trkpt lat="50.18295" lon="4.14164">
        <ele>221.72</ele>
        <time>2012-08-17T08:02:40Z</time>
      </trkpt>
      <trkpt lat="50.18293" lon="4.1418">
        <ele>221.72</ele>
        <time>2012-08-17T08:02:43Z</time>
      </trkpt>
      <trkpt lat="50.1829" lon="4.14194">
        <ele>221.24</ele>
        <time>2012-08-17T08:02:46Z</time>
      </trkpt>
      <trkpt lat="50.18285" lon="4.14208">
        <ele>222.2</ele>
        <time>2012-08-17T08:02:49Z</time>
      </trkpt>
      <trkpt lat="50.18281" lon="4.14221">
        <ele>221.72</ele>
        <time>2012-08-17T08:02:52Z</time>
      </trkpt>
      <trkpt lat="50.18277" lon="4.14237">
        <ele>222.2</ele>
        <time>2012-08-17T08:02:55Z</time>
      </trkpt>
      <trkpt lat="50.18273" lon="4.14253">
        <ele>222.2</ele>
        <time>2012-08-17T08:02:58Z</time>
      </trkpt>
      <trkpt lat="50.1827" lon="4.14268">
        <ele>222.68</ele>
        <time>2012-08-17T08:03:01Z</time>
      </trkpt>
      <trkpt lat="50.18267" lon="4.14281">
        <ele>222.68</ele>
        <time>2012-08-17T08:03:04Z</time>
      </trkpt>
      <trkpt lat="50.18264" lon="4.14296">
        <ele>222.68</ele>
        <time>2012-08-17T08:03:07Z</time>
      </trkpt>
      <trkpt lat="50.1826" lon="4.14309">
        <ele>221.72</ele>
        <time>2012-08-17T08:03:10Z</time>
      </trkpt>
      <trkpt lat="50.18258" lon="4.14324">
        <ele>221.72</ele>
        <time>2012-08-17T08:03:13Z</time>
      </trkpt>
      <trkpt lat="50.18256" lon="4.14339">
        <ele>221.72</ele>
        <time>2012-08-17T08:03:16Z</time>
      </trkpt>
      <trkpt lat="50.18254" lon="4.14354">
        <ele>221.72</ele>
        <time>2012-08-17T08:03:19Z</time>
      </trkpt>
      <trkpt lat="50.18253" lon="4.1437">
        <ele>222.2</ele>
        <time>2012-08-17T08:03:22Z</time>
      </trkpt>
      <trkpt lat="50.18252" lon="4.14384">
        <ele>221.72</ele>
        <time>2012-08-17T08:03:25Z</time>
      </trkpt>
      <trkpt lat="50.18252" lon="4.14403">
        <ele>222.2</ele>
        <time>2012-08-17T08:03:29Z</time>
      </trkpt>
      <trkpt lat="50.18251" lon="4.14418">
        <ele>222.2</ele>
        <time>2012-08-17T08:03:32Z</time>
      </trkpt>
      <trkpt lat="50.18249" lon="4.14435">
        <ele>222.68</ele>
        <time>2012-08-17T08:03:36Z</time>
      </trkpt>
      <trkpt lat="50.18247" lon="4.14451">
        <ele>222.68</ele>
        <time>2012-08-17T08:03:40Z</time>
      </trkpt>
      <trkpt lat="50.18243" lon="4.14467">
        <ele>223.16</ele>
        <time>2012-08-17T08:03:44Z</time>
      </trkpt>
      <trkpt lat="50.18238" lon="4.1448">
        <ele>224.12</ele>
        <time>2012-08-17T08:03:48Z</time>
      </trkpt>
      <trkpt lat="50.18232" lon="4.14492">
        <ele>224.12</ele>
        <time>2012-08-17T08:03:52Z</time>
      </trkpt>
      <trkpt lat="50.18222" lon="4.14503">
        <ele>223.64</ele>
        <time>2012-08-17T08:03:56Z</time>
      </trkpt>
      <trkpt lat="50.1821" lon="4.14511">
        <ele>224.61</ele>
        <time>2012-08-17T08:04:00Z</time>
      </trkpt>
      <trkpt lat="50.182" lon="4.14523">
        <ele>224.61</ele>
        <time>2012-08-17T08:04:04Z</time>
      </trkpt>
      <trkpt lat="50.18194" lon="4.14534">
        <ele>223.16</ele>
        <time>2012-08-17T08:04:07Z</time>
      </trkpt>
      <trkpt lat="50.18188" lon="4.14545">
        <ele>224.61</ele>
        <time>2012-08-17T08:04:10Z</time>
      </trkpt>
      <trkpt lat="50.18181" lon="4.14561">
        <ele>224.12</ele>
        <time>2012-08-17T08:04:14Z</time>
      </trkpt>
      <trkpt lat="50.18172" lon="4.14574">
        <ele>223.64</ele>
        <time>2012-08-17T08:04:18Z</time>
      </trkpt>
      <trkpt lat="50.18164" lon="4.14588">
        <ele>224.61</ele>
        <time>2012-08-17T08:04:22Z</time>
      </trkpt>
      <trkpt lat="50.18156" lon="4.146">
        <ele>224.61</ele>
        <time>2012-08-17T08:04:26Z</time>
      </trkpt>
      <trkpt lat="50.18147" lon="4.1461">
        <ele>224.61</ele>
        <time>2012-08-17T08:04:30Z</time>
      </trkpt>
      <trkpt lat="50.18137" lon="4.14621">
        <ele>225.09</ele>
        <time>2012-08-17T08:04:34Z</time>
      </trkpt>
      <trkpt lat="50.18127" lon="4.1463">
        <ele>225.09</ele>
        <time>2012-08-17T08:04:38Z</time>
      </trkpt>
      <trkpt lat="50.18118" lon="4.1464">
        <ele>225.57</ele>
        <time>2012-08-17T08:04:42Z</time>
      </trkpt>
      <trkpt lat="50.18108" lon="4.14649">
        <ele>226.05</ele>
        <time>2012-08-17T08:04:46Z</time>
      </trkpt>
      <trkpt lat="50.18098" lon="4.1466">
        <ele>225.57</ele>
        <time>2012-08-17T08:04:50Z</time>
      </trkpt>
      <trkpt lat="50.18089" lon="4.14666">
        <ele>225.57</ele>
        <time>2012-08-17T08:04:53Z</time>
      </trkpt>
      <trkpt lat="50.18079" lon="4.14677">
        <ele>226.53</ele>
        <time>2012-08-17T08:04:57Z</time>
      </trkpt>
      <trkpt lat="50.18071" lon="4.14688">
        <ele>226.05</ele>
        <time>2012-08-17T08:05:01Z</time>
      </trkpt>
      <trkpt lat="50.18063" lon="4.14701">
        <ele>227.01</ele>
        <time>2012-08-17T08:05:05Z</time>
      </trkpt>
      <trkpt lat="50.18056" lon="4.14711">
        <ele>225.57</ele>
        <time>2012-08-17T08:05:08Z</time>
      </trkpt>
      <trkpt lat="50.18049" lon="4.14721">
        <ele>225.57</ele>
        <time>2012-08-17T08:05:11Z</time>
      </trkpt>
      <trkpt lat="50.1804" lon="4.14735">
        <ele>225.57</ele>
        <time>2012-08-17T08:05:15Z</time>
      </trkpt>
      <trkpt lat="50.18032" lon="4.1475">
        <ele>226.53</ele>
        <time>2012-08-17T08:05:19Z</time>
      </trkpt>
      <trkpt lat="50.18026" lon="4.14763">
        <ele>226.53</ele>
        <time>2012-08-17T08:05:22Z</time>
      </trkpt>
      <trkpt lat="50.1802" lon="4.14774">
        <ele>225.57</ele>
        <time>2012-08-17T08:05:25Z</time>
      </trkpt>
      <trkpt lat="50.18012" lon="4.14786">
        <ele>226.05</ele>
        <time>2012-08-17T08:05:28Z</time>
      </trkpt>
      <trkpt lat="50.18006" lon="4.148">
        <ele>226.05</ele>
        <time>2012-08-17T08:05:31Z</time>
      </trkpt>
      <trkpt lat="50.18" lon="4.14814">
        <ele>226.05</ele>
        <time>2012-08-17T08:05:34Z</time>
      </trkpt>
      <trkpt lat="50.17995" lon="4.14827">
        <ele>224.61</ele>
        <time>2012-08-17T08:05:37Z</time>
      </trkpt>
      <trkpt lat="50.17992" lon="4.14841">
        <ele>224.61</ele>
        <time>2012-08-17T08:05:41Z</time>
      </trkpt>
      <trkpt lat="50.1799" lon="4.14847">
        <ele>225.57</ele>
        <time>2012-08-17T08:08:20Z</time>
      </trkpt>
      <trkpt lat="50.17977" lon="4.14847">
        <ele>225.09</ele>
        <time>2012-08-17T08:08:26Z</time>
      </trkpt>
      <trkpt lat="50.17968" lon="4.14836">
        <ele>224.61</ele>
        <time>2012-08-17T08:08:31Z</time>
      </trkpt>
      <trkpt lat="50.17966" lon="4.14821">
        <ele>224.12</ele>
        <time>2012-08-17T08:08:35Z</time>
      </trkpt>
      <trkpt lat="50.17963" lon="4.14803">
        <ele>224.61</ele>
        <time>2012-08-17T08:08:39Z</time>
      </trkpt>
      <trkpt lat="50.1796" lon="4.14785">
        <ele>224.12</ele>
        <time>2012-08-17T08:08:43Z</time>
      </trkpt>
      <trkpt lat="50.17958" lon="4.1477">
        <ele>224.12</ele>
        <time>2012-08-17T08:08:46Z</time>
      </trkpt>
      <trkpt lat="50.17955" lon="4.14754">
        <ele>223.64</ele>
        <time>2012-08-17T08:08:49Z</time>
      </trkpt>
      <trkpt lat="50.17953" lon="4.14736">
        <ele>223.64</ele>
        <time>2012-08-17T08:08:52Z</time>
      </trkpt>
      <trkpt lat="50.1795" lon="4.14717">
        <ele>223.16</ele>
        <time>2012-08-17T08:08:55Z</time>
      </trkpt>
      <trkpt lat="50.17947" lon="4.14698">
        <ele>223.16</ele>
        <time>2012-08-17T08:08:58Z</time>
      </trkpt>
      <trkpt lat="50.17944" lon="4.14679">
        <ele>222.68</ele>
        <time>2012-08-17T08:09:01Z</time>
      </trkpt>
      <trkpt lat="50.17941" lon="4.1466">
        <ele>222.68</ele>
        <time>2012-08-17T08:09:04Z</time>
      </trkpt>
      <trkpt lat="50.17938" lon="4.14642">
        <ele>221.72</ele>
        <time>2012-08-17T08:09:07Z</time>
      </trkpt>
      <trkpt lat="50.17936" lon="4.14622">
        <ele>222.2</ele>
        <time>2012-08-17T08:09:10Z</time>
      </trkpt>
      <trkpt lat="50.17934" lon="4.14602">
        <ele>221.24</ele>
        <time>2012-08-17T08:09:13Z</time>
      </trkpt>
      <trkpt lat="50.17933" lon="4.14581">
        <ele>221.24</ele>
        <time>2012-08-17T08:09:16Z</time>
      </trkpt>
      <trkpt lat="50.17933" lon="4.1456">
        <ele>220.76</ele>
        <time>2012-08-17T08:09:19Z</time>
      </trkpt>
      <trkpt lat="50.17933" lon="4.14545">
        <ele>220.28</ele>
        <time>2012-08-17T08:09:21Z</time>
      </trkpt>
      <trkpt lat="50.17936" lon="4.1453">
        <ele>219.8</ele>
        <time>2012-08-17T08:09:23Z</time>
      </trkpt>
      <trkpt lat="50.17939" lon="4.14516">
        <ele>219.32</ele>
        <time>2012-08-17T08:09:25Z</time>
      </trkpt>
      <trkpt lat="50.17942" lon="4.14501">
        <ele>218.84</ele>
        <time>2012-08-17T08:09:27Z</time>
      </trkpt>
      <trkpt lat="50.17947" lon="4.14486">
        <ele>218.84</ele>
        <time>2012-08-17T08:09:29Z</time>
      </trkpt>
      <trkpt lat="50.17951" lon="4.14471">
        <ele>217.88</ele>
        <time>2012-08-17T08:09:31Z</time>
      </trkpt>
      <trkpt lat="50.17955" lon="4.14456">
        <ele>217.88</ele>
        <time>2012-08-17T08:09:33Z</time>
      </trkpt>
      <trkpt lat="50.1796" lon="4.14441">
        <ele>217.88</ele>
        <time>2012-08-17T08:09:35Z</time>
      </trkpt>
      <trkpt lat="50.17964" lon="4.14425">
        <ele>216.91</ele>
        <time>2012-08-17T08:09:37Z</time>
      </trkpt>
      <trkpt lat="50.17969" lon="4.14409">
        <ele>217.4</ele>
        <time>2012-08-17T08:09:39Z</time>
      </trkpt>
      <trkpt lat="50.17973" lon="4.14393">
        <ele>215.95</ele>
        <time>2012-08-17T08:09:41Z</time>
      </trkpt>
      <trkpt lat="50.17978" lon="4.14377">
        <ele>215.95</ele>
        <time>2012-08-17T08:09:43Z</time>
      </trkpt>
      <trkpt lat="50.17984" lon="4.14362">
        <ele>215.95</ele>
        <time>2012-08-17T08:09:45Z</time>
      </trkpt>
      <trkpt lat="50.17991" lon="4.14349">
        <ele>215.47</ele>
        <time>2012-08-17T08:09:47Z</time>
      </trkpt>
      <trkpt lat="50.18001" lon="4.14338">
        <ele>214.99</ele>
        <time>2012-08-17T08:09:49Z</time>
      </trkpt>
      <trkpt lat="50.18012" lon="4.14327">
        <ele>214.99</ele>
        <time>2012-08-17T08:09:51Z</time>
      </trkpt>
      <trkpt lat="50.18022" lon="4.14317">
        <ele>214.99</ele>
        <time>2012-08-17T08:09:53Z</time>
      </trkpt>
      <trkpt lat="50.1803" lon="4.14304">
        <ele>214.51</ele>
        <time>2012-08-17T08:09:55Z</time>
      </trkpt>
      <trkpt lat="50.18037" lon="4.1429">
        <ele>214.03</ele>
        <time>2012-08-17T08:09:57Z</time>
      </trkpt>
      <trkpt lat="50.18044" lon="4.14275">
        <ele>213.07</ele>
        <time>2012-08-17T08:09:59Z</time>
      </trkpt>
      <trkpt lat="50.1805" lon="4.14261">
        <ele>213.07</ele>
        <time>2012-08-17T08:10:01Z</time>
      </trkpt>
      <trkpt lat="50.18056" lon="4.14246">
        <ele>213.55</ele>
        <time>2012-08-17T08:10:03Z</time>
      </trkpt>
      <trkpt lat="50.18061" lon="4.1423">
        <ele>213.07</ele>
        <time>2012-08-17T08:10:05Z</time>
      </trkpt>
      <trkpt lat="50.18065" lon="4.14214">
        <ele>213.55</ele>
        <time>2012-08-17T08:10:07Z</time>
      </trkpt>
      <trkpt lat="50.18069" lon="4.14199">
        <ele>212.59</ele>
        <time>2012-08-17T08:10:09Z</time>
      </trkpt>
      <trkpt lat="50.18072" lon="4.14185">
        <ele>213.55</ele>
        <time>2012-08-17T08:10:11Z</time>
      </trkpt>
      <trkpt lat="50.18074" lon="4.14171">
        <ele>213.55</ele>
        <time>2012-08-17T08:10:13Z</time>
      </trkpt>
      <trkpt lat="50.18076" lon="4.14157">
        <ele>213.07</ele>
        <time>2012-08-17T08:10:15Z</time>
      </trkpt>
      <trkpt lat="50.18077" lon="4.14138">
        <ele>213.55</ele>
        <time>2012-08-17T08:10:18Z</time>
      </trkpt>
      <trkpt lat="50.18078" lon="4.14119">
        <ele>213.55</ele>
        <time>2012-08-17T08:10:21Z</time>
      </trkpt>
      <trkpt lat="50.18076" lon="4.14099">
        <ele>214.03</ele>
        <time>2012-08-17T08:10:24Z</time>
      </trkpt>
      <trkpt lat="50.1807" lon="4.1408">
        <ele>214.03</ele>
        <time>2012-08-17T08:10:27Z</time>
      </trkpt>
      <trkpt lat="50.18066" lon="4.14066">
        <ele>214.51</ele>
        <time>2012-08-17T08:10:29Z</time>
      </trkpt>
      <trkpt lat="50.18063" lon="4.14053">
        <ele>214.03</ele>
        <time>2012-08-17T08:10:31Z</time>
      </trkpt>
      <trkpt lat="50.18059" lon="4.14039">
        <ele>214.03</ele>
        <time>2012-08-17T08:10:33Z</time>
      </trkpt>
      <trkpt lat="50.18056" lon="4.14024">
        <ele>213.07</ele>
        <time>2012-08-17T08:10:35Z</time>
      </trkpt>
      <trkpt lat="50.18052" lon="4.14008">
        <ele>213.07</ele>
        <time>2012-08-17T08:10:37Z</time>
      </trkpt>
      <trkpt lat="50.18048" lon="4.13993">
        <ele>211.63</ele>
        <time>2012-08-17T08:10:39Z</time>
      </trkpt>
      <trkpt lat="50.18044" lon="4.13978">
        <ele>212.11</ele>
        <time>2012-08-17T08:10:41Z</time>
      </trkpt>
      <trkpt lat="50.18041" lon="4.13962">
        <ele>211.15</ele>
        <time>2012-08-17T08:10:43Z</time>
      </trkpt>
      <trkpt lat="50.18037" lon="4.13947">
        <ele>210.67</ele>
        <time>2012-08-17T08:10:45Z</time>
      </trkpt>
      <trkpt lat="50.18034" lon="4.13933">
        <ele>211.63</ele>
        <time>2012-08-17T08:10:47Z</time>
      </trkpt>
      <trkpt lat="50.18028" lon="4.13921">
        <ele>211.15</ele>
        <time>2012-08-17T08:10:49Z</time>
      </trkpt>
      <trkpt lat="50.18021" lon="4.13908">
        <ele>210.67</ele>
        <time>2012-08-17T08:10:51Z</time>
      </trkpt>
      <trkpt lat="50.18015" lon="4.13897">
        <ele>210.67</ele>
        <time>2012-08-17T08:10:53Z</time>
      </trkpt>
      <trkpt lat="50.18007" lon="4.13886">
        <ele>210.67</ele>
        <time>2012-08-17T08:10:55Z</time>
      </trkpt>
      <trkpt lat="50.18" lon="4.13876">
        <ele>209.7</ele>
        <time>2012-08-17T08:10:57Z</time>
      </trkpt>
      <trkpt lat="50.17994" lon="4.13864">
        <ele>209.22</ele>
        <time>2012-08-17T08:10:59Z</time>
      </trkpt>
      <trkpt lat="50.17989" lon="4.13852">
        <ele>209.7</ele>
        <time>2012-08-17T08:11:01Z</time>
      </trkpt>
      <trkpt lat="50.17983" lon="4.1384">
        <ele>209.7</ele>
        <time>2012-08-17T08:11:03Z</time>
      </trkpt>
      <trkpt lat="50.17977" lon="4.13828">
        <ele>209.7</ele>
        <time>2012-08-17T08:11:05Z</time>
      </trkpt>
      <trkpt lat="50.17971" lon="4.13816">
        <ele>209.22</ele>
        <time>2012-08-17T08:11:07Z</time>
      </trkpt>
      <trkpt lat="50.17966" lon="4.13804">
        <ele>209.7</ele>
        <time>2012-08-17T08:11:09Z</time>
      </trkpt>
      <trkpt lat="50.17958" lon="4.13786">
        <ele>208.74</ele>
        <time>2012-08-17T08:11:12Z</time>
      </trkpt>
      <trkpt lat="50.17949" lon="4.1377">
        <ele>209.22</ele>
        <time>2012-08-17T08:11:15Z</time>
      </trkpt>
      <trkpt lat="50.17942" lon="4.1376">
        <ele>208.26</ele>
        <time>2012-08-17T08:11:17Z</time>
      </trkpt>
      <trkpt lat="50.17933" lon="4.13751">
        <ele>209.22</ele>
        <time>2012-08-17T08:11:19Z</time>
      </trkpt>
      <trkpt lat="50.17925" lon="4.13743">
        <ele>208.74</ele>
        <time>2012-08-17T08:11:21Z</time>
      </trkpt>
      <trkpt lat="50.17917" lon="4.13735">
        <ele>208.74</ele>
        <time>2012-08-17T08:11:23Z</time>
      </trkpt>
      <trkpt lat="50.17909" lon="4.13728">
        <ele>208.74</ele>
        <time>2012-08-17T08:11:25Z</time>
      </trkpt>
      <trkpt lat="50.179" lon="4.13721">
        <ele>208.74</ele>
        <time>2012-08-17T08:11:27Z</time>
      </trkpt>
      <trkpt lat="50.17891" lon="4.13713">
        <ele>208.26</ele>
        <time>2012-08-17T08:11:29Z</time>
      </trkpt>
      <trkpt lat="50.17882" lon="4.13705">
        <ele>207.78</ele>
        <time>2012-08-17T08:11:31Z</time>
      </trkpt>
      <trkpt lat="50.17873" lon="4.13697">
        <ele>206.34</ele>
        <time>2012-08-17T08:11:33Z</time>
      </trkpt>
      <trkpt lat="50.17863" lon="4.13688">
        <ele>205.86</ele>
        <time>2012-08-17T08:11:35Z</time>
      </trkpt>
      <trkpt lat="50.17853" lon="4.13676">
        <ele>204.42</ele>
        <time>2012-08-17T08:11:37Z</time>
      </trkpt>
      <trkpt lat="50.17844" lon="4.1366">
        <ele>203.94</ele>
        <time>2012-08-17T08:11:39Z</time>
      </trkpt>
      <trkpt lat="50.17838" lon="4.13642">
        <ele>204.42</ele>
        <time>2012-08-17T08:11:41Z</time>
      </trkpt>
      <trkpt lat="50.17834" lon="4.13621">
        <ele>203.94</ele>
        <time>2012-08-17T08:11:43Z</time>
      </trkpt>
      <trkpt lat="50.17831" lon="4.136">
        <ele>203.46</ele>
        <time>2012-08-17T08:11:45Z</time>
      </trkpt>
      <trkpt lat="50.17828" lon="4.1358">
        <ele>203.46</ele>
        <time>2012-08-17T08:11:47Z</time>
      </trkpt>
      <trkpt lat="50.17826" lon="4.13561">
        <ele>203.46</ele>
        <time>2012-08-17T08:11:49Z</time>
      </trkpt>
      <trkpt lat="50.17823" lon="4.13543">
        <ele>202.98</ele>
        <time>2012-08-17T08:11:51Z</time>
      </trkpt>
      <trkpt lat="50.1782" lon="4.13525">
        <ele>202.49</ele>
        <time>2012-08-17T08:11:53Z</time>
      </trkpt>
      <trkpt lat="50.17818" lon="4.13507">
        <ele>203.94</ele>
        <time>2012-08-17T08:11:55Z</time>
      </trkpt>
      <trkpt lat="50.17817" lon="4.1349">
        <ele>203.94</ele>
        <time>2012-08-17T08:11:57Z</time>
      </trkpt>
      <trkpt lat="50.17815" lon="4.13474">
        <ele>202.98</ele>
        <time>2012-08-17T08:11:59Z</time>
      </trkpt>
      <trkpt lat="50.17813" lon="4.13459">
        <ele>202.98</ele>
        <time>2012-08-17T08:12:01Z</time>
      </trkpt>
      <trkpt lat="50.1781" lon="4.13444">
        <ele>202.98</ele>
        <time>2012-08-17T08:12:03Z</time>
      </trkpt>
      <trkpt lat="50.17809" lon="4.1343">
        <ele>202.98</ele>
        <time>2012-08-17T08:12:05Z</time>
      </trkpt>
      <trkpt lat="50.17806" lon="4.13416">
        <ele>203.46</ele>
        <time>2012-08-17T08:12:07Z</time>
      </trkpt>
      <trkpt lat="50.17803" lon="4.13401">
        <ele>203.46</ele>
        <time>2012-08-17T08:12:09Z</time>
      </trkpt>
      <trkpt lat="50.178" lon="4.13386">
        <ele>203.46</ele>
        <time>2012-08-17T08:12:11Z</time>
      </trkpt>
      <trkpt lat="50.17796" lon="4.13372">
        <ele>202.49</ele>
        <time>2012-08-17T08:12:13Z</time>
      </trkpt>
      <trkpt lat="50.17792" lon="4.13358">
        <ele>202.49</ele>
        <time>2012-08-17T08:12:15Z</time>
      </trkpt>
      <trkpt lat="50.17788" lon="4.13345">
        <ele>202.49</ele>
        <time>2012-08-17T08:12:17Z</time>
      </trkpt>
      <trkpt lat="50.17783" lon="4.13332">
        <ele>202.98</ele>
        <time>2012-08-17T08:12:19Z</time>
      </trkpt>
      <trkpt lat="50.17777" lon="4.13313">
        <ele>202.98</ele>
        <time>2012-08-17T08:12:22Z</time>
      </trkpt>
      <trkpt lat="50.17772" lon="4.13301">
        <ele>202.98</ele>
        <time>2012-08-17T08:12:24Z</time>
      </trkpt>
      <trkpt lat="50.17767" lon="4.13289">
        <ele>203.46</ele>
        <time>2012-08-17T08:12:26Z</time>
      </trkpt>
      <trkpt lat="50.17761" lon="4.13271">
        <ele>203.46</ele>
        <time>2012-08-17T08:12:29Z</time>
      </trkpt>
      <trkpt lat="50.17755" lon="4.13252">
        <ele>202.98</ele>
        <time>2012-08-17T08:12:32Z</time>
      </trkpt>
      <trkpt lat="50.17751" lon="4.13235">
        <ele>203.46</ele>
        <time>2012-08-17T08:12:35Z</time>
      </trkpt>
      <trkpt lat="50.17751" lon="4.13218">
        <ele>203.94</ele>
        <time>2012-08-17T08:12:38Z</time>
      </trkpt>
      <trkpt lat="50.17753" lon="4.13201">
        <ele>204.42</ele>
        <time>2012-08-17T08:12:41Z</time>
      </trkpt>
      <trkpt lat="50.17756" lon="4.13186">
        <ele>204.42</ele>
        <time>2012-08-17T08:12:44Z</time>
      </trkpt>
      <trkpt lat="50.17758" lon="4.1317">
        <ele>204.9</ele>
        <time>2012-08-17T08:12:47Z</time>
      </trkpt>
      <trkpt lat="50.17761" lon="4.13153">
        <ele>204.9</ele>
        <time>2012-08-17T08:12:50Z</time>
      </trkpt>
      <trkpt lat="50.17762" lon="4.13134">
        <ele>204.9</ele>
        <time>2012-08-17T08:12:53Z</time>
      </trkpt>
      <trkpt lat="50.17764" lon="4.13112">
        <ele>205.38</ele>
        <time>2012-08-17T08:12:56Z</time>
      </trkpt>
      <trkpt lat="50.17764" lon="4.13098">
        <ele>204.9</ele>
        <time>2012-08-17T08:12:58Z</time>
      </trkpt>
      <trkpt lat="50.17764" lon="4.13084">
        <ele>204.9</ele>
        <time>2012-08-17T08:13:00Z</time>
      </trkpt>
      <trkpt lat="50.17764" lon="4.13062">
        <ele>204.42</ele>
        <time>2012-08-17T08:13:03Z</time>
      </trkpt>
      <trkpt lat="50.17765" lon="4.13038">
        <ele>204.42</ele>
        <time>2012-08-17T08:13:06Z</time>
      </trkpt>
      <trkpt lat="50.17768" lon="4.13017">
        <ele>203.94</ele>
        <time>2012-08-17T08:13:09Z</time>
      </trkpt>
      <trkpt lat="50.17771" lon="4.12997">
        <ele>203.46</ele>
        <time>2012-08-17T08:13:12Z</time>
      </trkpt>
      <trkpt lat="50.17774" lon="4.12981">
        <ele>202.98</ele>
        <time>2012-08-17T08:13:15Z</time>
      </trkpt>
      <trkpt lat="50.1778" lon="4.12965">
        <ele>202.49</ele>
        <time>2012-08-17T08:13:19Z</time>
      </trkpt>
      <trkpt lat="50.17779" lon="4.12946">
        <ele>202.49</ele>
        <time>2012-08-17T08:13:22Z</time>
      </trkpt>
      <trkpt lat="50.17778" lon="4.1293">
        <ele>201.53</ele>
        <time>2012-08-17T08:13:24Z</time>
      </trkpt>
      <trkpt lat="50.17776" lon="4.12912">
        <ele>201.05</ele>
        <time>2012-08-17T08:13:26Z</time>
      </trkpt>
      <trkpt lat="50.17773" lon="4.1289">
        <ele>200.09</ele>
        <time>2012-08-17T08:13:28Z</time>
      </trkpt>
      <trkpt lat="50.17769" lon="4.12866">
        <ele>199.13</ele>
        <time>2012-08-17T08:13:30Z</time>
      </trkpt>
      <trkpt lat="50.17764" lon="4.12844">
        <ele>199.61</ele>
        <time>2012-08-17T08:13:32Z</time>
      </trkpt>
      <trkpt lat="50.17758" lon="4.12827">
        <ele>198.17</ele>
        <time>2012-08-17T08:13:34Z</time>
      </trkpt>
      <trkpt lat="50.17753" lon="4.12813">
        <ele>198.17</ele>
        <time>2012-08-17T08:13:36Z</time>
      </trkpt>
      <trkpt lat="50.17751" lon="4.12799">
        <ele>197.21</ele>
        <time>2012-08-17T08:13:38Z</time>
      </trkpt>
      <trkpt lat="50.17751" lon="4.1278">
        <ele>197.69</ele>
        <time>2012-08-17T08:13:41Z</time>
      </trkpt>
      <trkpt lat="50.17749" lon="4.1276">
        <ele>197.21</ele>
        <time>2012-08-17T08:13:44Z</time>
      </trkpt>
      <trkpt lat="50.17747" lon="4.12741">
        <ele>197.21</ele>
        <time>2012-08-17T08:13:47Z</time>
      </trkpt>
      <trkpt lat="50.17744" lon="4.12725">
        <ele>197.21</ele>
        <time>2012-08-17T08:13:50Z</time>
      </trkpt>
      <trkpt lat="50.17743" lon="4.12708">
        <ele>198.17</ele>
        <time>2012-08-17T08:13:54Z</time>
      </trkpt>
      <trkpt lat="50.17743" lon="4.12692">
        <ele>198.17</ele>
        <time>2012-08-17T08:13:58Z</time>
      </trkpt>
      <trkpt lat="50.17741" lon="4.12674">
        <ele>198.17</ele>
        <time>2012-08-17T08:14:02Z</time>
      </trkpt>
      <trkpt lat="50.1774" lon="4.12659">
        <ele>198.65</ele>
        <time>2012-08-17T08:14:06Z</time>
      </trkpt>
      <trkpt lat="50.17737" lon="4.12644">
        <ele>198.17</ele>
        <time>2012-08-17T08:14:41Z</time>
      </trkpt>
      <trkpt lat="50.17736" lon="4.12628">
        <ele>198.17</ele>
        <time>2012-08-17T08:15:08Z</time>
      </trkpt>
      <trkpt lat="50.17734" lon="4.12612">
        <ele>198.17</ele>
        <time>2012-08-17T08:15:13Z</time>
      </trkpt>
      <trkpt lat="50.17726" lon="4.12599">
        <ele>197.69</ele>
        <time>2012-08-17T08:15:18Z</time>
      </trkpt>
      <trkpt lat="50.17717" lon="4.12592">
        <ele>198.17</ele>
        <time>2012-08-17T08:15:23Z</time>
      </trkpt>
      <trkpt lat="50.17707" lon="4.12593">
        <ele>198.17</ele>
        <time>2012-08-17T08:17:14Z</time>
      </trkpt>
      <trkpt lat="50.17697" lon="4.12592">
        <ele>199.13</ele>
        <time>2012-08-17T08:17:18Z</time>
      </trkpt>
      <trkpt lat="50.17687" lon="4.12591">
        <ele>199.13</ele>
        <time>2012-08-17T08:17:22Z</time>
      </trkpt>
      <trkpt lat="50.17675" lon="4.12589">
        <ele>198.65</ele>
        <time>2012-08-17T08:17:26Z</time>
      </trkpt>
      <trkpt lat="50.17666" lon="4.12583">
        <ele>199.13</ele>
        <time>2012-08-17T08:17:31Z</time>
      </trkpt>
      <trkpt lat="50.17662" lon="4.12569">
        <ele>200.57</ele>
        <time>2012-08-17T08:17:36Z</time>
      </trkpt>
      <trkpt lat="50.17667" lon="4.1255">
        <ele>199.61</ele>
        <time>2012-08-17T08:17:41Z</time>
      </trkpt>
      <trkpt lat="50.17671" lon="4.12534">
        <ele>199.61</ele>
        <time>2012-08-17T08:17:44Z</time>
      </trkpt>
      <trkpt lat="50.17675" lon="4.12517">
        <ele>199.61</ele>
        <time>2012-08-17T08:17:47Z</time>
      </trkpt>
      <trkpt lat="50.17678" lon="4.12503">
        <ele>200.09</ele>
        <time>2012-08-17T08:17:50Z</time>
      </trkpt>
      <trkpt lat="50.1768" lon="4.12487">
        <ele>199.61</ele>
        <time>2012-08-17T08:17:53Z</time>
      </trkpt>
      <trkpt lat="50.17682" lon="4.12469">
        <ele>199.13</ele>
        <time>2012-08-17T08:17:56Z</time>
      </trkpt>
      <trkpt lat="50.17683" lon="4.12452">
        <ele>199.13</ele>
        <time>2012-08-17T08:17:59Z</time>
      </trkpt>
      <trkpt lat="50.17685" lon="4.12436">
        <ele>200.09</ele>
        <time>2012-08-17T08:18:02Z</time>
      </trkpt>
      <trkpt lat="50.17687" lon="4.1242">
        <ele>200.09</ele>
        <time>2012-08-17T08:18:05Z</time>
      </trkpt>
      <trkpt lat="50.17687" lon="4.12403">
        <ele>199.61</ele>
        <time>2012-08-17T08:18:08Z</time>
      </trkpt>
      <trkpt lat="50.17686" lon="4.12383">
        <ele>198.65</ele>
        <time>2012-08-17T08:18:11Z</time>
      </trkpt>
      <trkpt lat="50.17685" lon="4.12369">
        <ele>199.13</ele>
        <time>2012-08-17T08:18:13Z</time>
      </trkpt>
      <trkpt lat="50.17684" lon="4.12355">
        <ele>198.65</ele>
        <time>2012-08-17T08:18:15Z</time>
      </trkpt>
      <trkpt lat="50.17682" lon="4.12334">
        <ele>198.65</ele>
        <time>2012-08-17T08:18:18Z</time>
      </trkpt>
      <trkpt lat="50.1768" lon="4.12315">
        <ele>198.65</ele>
        <time>2012-08-17T08:18:21Z</time>
      </trkpt>
      <trkpt lat="50.17678" lon="4.12294">
        <ele>199.13</ele>
        <time>2012-08-17T08:18:24Z</time>
      </trkpt>
      <trkpt lat="50.17675" lon="4.12277">
        <ele>199.13</ele>
        <time>2012-08-17T08:18:27Z</time>
      </trkpt>
      <trkpt lat="50.17671" lon="4.12262">
        <ele>199.13</ele>
        <time>2012-08-17T08:18:30Z</time>
      </trkpt>
      <trkpt lat="50.17661" lon="4.12252">
        <ele>199.13</ele>
        <time>2012-08-17T08:18:34Z</time>
      </trkpt>
      <trkpt lat="50.1765" lon="4.12249">
        <ele>199.13</ele>
        <time>2012-08-17T08:18:37Z</time>
      </trkpt>
      <trkpt lat="50.17638" lon="4.12247">
        <ele>198.65</ele>
        <time>2012-08-17T08:18:40Z</time>
      </trkpt>
      <trkpt lat="50.17627" lon="4.12246">
        <ele>199.13</ele>
        <time>2012-08-17T08:18:43Z</time>
      </trkpt>
      <trkpt lat="50.17616" lon="4.12243">
        <ele>200.57</ele>
        <time>2012-08-17T08:18:46Z</time>
      </trkpt>
      <trkpt lat="50.17605" lon="4.12241">
        <ele>199.13</ele>
        <time>2012-08-17T08:18:49Z</time>
      </trkpt>
      <trkpt lat="50.17594" lon="4.1224">
        <ele>199.61</ele>
        <time>2012-08-17T08:18:52Z</time>
      </trkpt>
      <trkpt lat="50.17584" lon="4.1224">
        <ele>199.61</ele>
        <time>2012-08-17T08:18:55Z</time>
      </trkpt>
      <trkpt lat="50.17573" lon="4.12236">
        <ele>200.09</ele>
        <time>2012-08-17T08:18:58Z</time>
      </trkpt>
      <trkpt lat="50.17563" lon="4.12232">
        <ele>200.09</ele>
        <time>2012-08-17T08:19:01Z</time>
      </trkpt>
      <trkpt lat="50.17551" lon="4.12228">
        <ele>200.57</ele>
        <time>2012-08-17T08:19:04Z</time>
      </trkpt>
      <trkpt lat="50.17541" lon="4.12223">
        <ele>200.09</ele>
        <time>2012-08-17T08:19:07Z</time>
      </trkpt>
      <trkpt lat="50.17531" lon="4.1222">
        <ele>200.09</ele>
        <time>2012-08-17T08:19:10Z</time>
      </trkpt>
      <trkpt lat="50.17521" lon="4.12216">
        <ele>200.57</ele>
        <time>2012-08-17T08:19:13Z</time>
      </trkpt>
      <trkpt lat="50.17512" lon="4.1221">
        <ele>200.57</ele>
        <time>2012-08-17T08:19:16Z</time>
      </trkpt>
      <trkpt lat="50.17502" lon="4.12203">
        <ele>201.05</ele>
        <time>2012-08-17T08:19:19Z</time>
      </trkpt>
      <trkpt lat="50.17492" lon="4.12196">
        <ele>202.01</ele>
        <time>2012-08-17T08:19:22Z</time>
      </trkpt>
      <trkpt lat="50.17483" lon="4.12188">
        <ele>202.49</ele>
        <time>2012-08-17T08:19:25Z</time>
      </trkpt>
      <trkpt lat="50.17474" lon="4.12181">
        <ele>202.98</ele>
        <time>2012-08-17T08:19:28Z</time>
      </trkpt>
      <trkpt lat="50.17465" lon="4.12173">
        <ele>202.49</ele>
        <time>2012-08-17T08:19:31Z</time>
      </trkpt>
      <trkpt lat="50.17457" lon="4.12166">
        <ele>203.46</ele>
        <time>2012-08-17T08:19:34Z</time>
      </trkpt>
      <trkpt lat="50.17447" lon="4.12156">
        <ele>204.42</ele>
        <time>2012-08-17T08:19:38Z</time>
      </trkpt>
      <trkpt lat="50.17437" lon="4.12145">
        <ele>204.42</ele>
        <time>2012-08-17T08:19:42Z</time>
      </trkpt>
      <trkpt lat="50.17428" lon="4.12134">
        <ele>205.86</ele>
        <time>2012-08-17T08:19:46Z</time>
      </trkpt>
      <trkpt lat="50.17421" lon="4.12125">
        <ele>206.34</ele>
        <time>2012-08-17T08:19:49Z</time>
      </trkpt>
      <trkpt lat="50.17412" lon="4.12114">
        <ele>206.34</ele>
        <time>2012-08-17T08:19:53Z</time>
      </trkpt>
      <trkpt lat="50.17403" lon="4.12103">
        <ele>206.34</ele>
        <time>2012-08-17T08:19:57Z</time>
      </trkpt>
      <trkpt lat="50.17394" lon="4.12093">
        <ele>207.78</ele>
        <time>2012-08-17T08:20:01Z</time>
      </trkpt>
      <trkpt lat="50.17386" lon="4.12084">
        <ele>206.82</ele>
        <time>2012-08-17T08:20:05Z</time>
      </trkpt>
      <trkpt lat="50.17376" lon="4.12075">
        <ele>208.26</ele>
        <time>2012-08-17T08:20:09Z</time>
      </trkpt>
      <trkpt lat="50.17368" lon="4.12065">
        <ele>208.74</ele>
        <time>2012-08-17T08:20:13Z</time>
      </trkpt>
      <trkpt lat="50.17359" lon="4.12056">
        <ele>209.7</ele>
        <time>2012-08-17T08:20:17Z</time>
      </trkpt>
      <trkpt lat="50.1735" lon="4.12046">
        <ele>209.7</ele>
        <time>2012-08-17T08:20:21Z</time>
      </trkpt>
      <trkpt lat="50.17342" lon="4.12036">
        <ele>210.19</ele>
        <time>2012-08-17T08:20:25Z</time>
      </trkpt>
      <trkpt lat="50.17333" lon="4.12026">
        <ele>211.15</ele>
        <time>2012-08-17T08:20:30Z</time>
      </trkpt>
      <trkpt lat="50.17324" lon="4.12019">
        <ele>210.67</ele>
        <time>2012-08-17T08:20:34Z</time>
      </trkpt>
      <trkpt lat="50.17316" lon="4.12012">
        <ele>210.67</ele>
        <time>2012-08-17T08:20:38Z</time>
      </trkpt>
      <trkpt lat="50.17306" lon="4.12006">
        <ele>212.11</ele>
        <time>2012-08-17T08:20:42Z</time>
      </trkpt>
      <trkpt lat="50.17296" lon="4.12">
        <ele>212.11</ele>
        <time>2012-08-17T08:20:46Z</time>
      </trkpt>
      <trkpt lat="50.17286" lon="4.11994">
        <ele>212.59</ele>
        <time>2012-08-17T08:20:50Z</time>
      </trkpt>
      <trkpt lat="50.17275" lon="4.11988">
        <ele>212.11</ele>
        <time>2012-08-17T08:20:54Z</time>
      </trkpt>
      <trkpt lat="50.17262" lon="4.11982">
        <ele>212.11</ele>
        <time>2012-08-17T08:20:58Z</time>
      </trkpt>
      <trkpt lat="50.17253" lon="4.11978">
        <ele>211.15</ele>
        <time>2012-08-17T08:21:01Z</time>
      </trkpt>
      <trkpt lat="50.17243" lon="4.11973">
        <ele>211.63</ele>
        <time>2012-08-17T08:21:04Z</time>
      </trkpt>
      <trkpt lat="50.17233" lon="4.11967">
        <ele>211.63</ele>
        <time>2012-08-17T08:21:07Z</time>
      </trkpt>
      <trkpt lat="50.17224" lon="4.11961">
        <ele>211.15</ele>
        <time>2012-08-17T08:21:10Z</time>
      </trkpt>
      <trkpt lat="50.17215" lon="4.11953">
        <ele>211.63</ele>
        <time>2012-08-17T08:21:13Z</time>
      </trkpt>
      <trkpt lat="50.17206" lon="4.11946">
        <ele>211.15</ele>
        <time>2012-08-17T08:21:16Z</time>
      </trkpt>
      <trkpt lat="50.17199" lon="4.11937">
        <ele>210.67</ele>
        <time>2012-08-17T08:21:19Z</time>
      </trkpt>
      <trkpt lat="50.17189" lon="4.11927">
        <ele>210.67</ele>
        <time>2012-08-17T08:21:23Z</time>
      </trkpt>
      <trkpt lat="50.1718" lon="4.11916">
        <ele>211.63</ele>
        <time>2012-08-17T08:21:27Z</time>
      </trkpt>
      <trkpt lat="50.17171" lon="4.11905">
        <ele>212.11</ele>
        <time>2012-08-17T08:21:31Z</time>
      </trkpt>
      <trkpt lat="50.17161" lon="4.11894">
        <ele>212.59</ele>
        <time>2012-08-17T08:21:35Z</time>
      </trkpt>
      <trkpt lat="50.17152" lon="4.11884">
        <ele>214.03</ele>
        <time>2012-08-17T08:21:39Z</time>
      </trkpt>
      <trkpt lat="50.17144" lon="4.11876">
        <ele>214.03</ele>
        <time>2012-08-17T08:21:43Z</time>
      </trkpt>
      <trkpt lat="50.17136" lon="4.11866">
        <ele>214.51</ele>
        <time>2012-08-17T08:21:47Z</time>
      </trkpt>
      <trkpt lat="50.17128" lon="4.11856">
        <ele>214.99</ele>
        <time>2012-08-17T08:21:51Z</time>
      </trkpt>
      <trkpt lat="50.17118" lon="4.11844">
        <ele>216.43</ele>
        <time>2012-08-17T08:21:56Z</time>
      </trkpt>
      <trkpt lat="50.1711" lon="4.11832">
        <ele>216.91</ele>
        <time>2012-08-17T08:22:01Z</time>
      </trkpt>
      <trkpt lat="50.17104" lon="4.11819">
        <ele>217.4</ele>
        <time>2012-08-17T08:22:05Z</time>
      </trkpt>
      <trkpt lat="50.17098" lon="4.11808">
        <ele>217.88</ele>
        <time>2012-08-17T08:22:09Z</time>
      </trkpt>
      <trkpt lat="50.17092" lon="4.11794">
        <ele>218.36</ele>
        <time>2012-08-17T08:22:14Z</time>
      </trkpt>
      <trkpt lat="50.17086" lon="4.1178">
        <ele>218.36</ele>
        <time>2012-08-17T08:22:18Z</time>
      </trkpt>
      <trkpt lat="50.17082" lon="4.11768">
        <ele>219.32</ele>
        <time>2012-08-17T08:22:22Z</time>
      </trkpt>
      <trkpt lat="50.17077" lon="4.11754">
        <ele>218.36</ele>
        <time>2012-08-17T08:22:26Z</time>
      </trkpt>
      <trkpt lat="50.17072" lon="4.11742">
        <ele>220.76</ele>
        <time>2012-08-17T08:22:30Z</time>
      </trkpt>
      <trkpt lat="50.17067" lon="4.11729">
        <ele>218.84</ele>
        <time>2012-08-17T08:22:34Z</time>
      </trkpt>
      <trkpt lat="50.17061" lon="4.11717">
        <ele>221.24</ele>
        <time>2012-08-17T08:22:38Z</time>
      </trkpt>
      <trkpt lat="50.17056" lon="4.11702">
        <ele>221.24</ele>
        <time>2012-08-17T08:22:42Z</time>
      </trkpt>
      <trkpt lat="50.17049" lon="4.11689">
        <ele>220.76</ele>
        <time>2012-08-17T08:22:46Z</time>
      </trkpt>
      <trkpt lat="50.17043" lon="4.11677">
        <ele>220.76</ele>
        <time>2012-08-17T08:22:50Z</time>
      </trkpt>
      <trkpt lat="50.17036" lon="4.11665">
        <ele>220.76</ele>
        <time>2012-08-17T08:22:54Z</time>
      </trkpt>
      <trkpt lat="50.1703" lon="4.11651">
        <ele>222.2</ele>
        <time>2012-08-17T08:22:58Z</time>
      </trkpt>
      <trkpt lat="50.17023" lon="4.11637">
        <ele>221.72</ele>
        <time>2012-08-17T08:23:02Z</time>
      </trkpt>
      <trkpt lat="50.17016" lon="4.11624">
        <ele>222.2</ele>
        <time>2012-08-17T08:23:06Z</time>
      </trkpt>
      <trkpt lat="50.17009" lon="4.1161">
        <ele>221.72</ele>
        <time>2012-08-17T08:23:10Z</time>
      </trkpt>
      <trkpt lat="50.17002" lon="4.11599">
        <ele>222.2</ele>
        <time>2012-08-17T08:23:13Z</time>
      </trkpt>
      <trkpt lat="50.16994" lon="4.11586">
        <ele>222.2</ele>
        <time>2012-08-17T08:23:17Z</time>
      </trkpt>
      <trkpt lat="50.16987" lon="4.11575">
        <ele>222.2</ele>
        <time>2012-08-17T08:23:21Z</time>
      </trkpt>
      <trkpt lat="50.1698" lon="4.11565">
        <ele>222.2</ele>
        <time>2012-08-17T08:23:25Z</time>
      </trkpt>
      <trkpt lat="50.16972" lon="4.11557">
        <ele>221.24</ele>
        <time>2012-08-17T08:23:30Z</time>
      </trkpt>
      <trkpt lat="50.16966" lon="4.11553">
        <ele>221.24</ele>
        <time>2012-08-17T08:25:12Z</time>
      </trkpt>
      <trkpt lat="50.16958" lon="4.11538">
        <ele>221.72</ele>
        <time>2012-08-17T08:25:31Z</time>
      </trkpt>
      <trkpt lat="50.16951" lon="4.11525">
        <ele>220.76</ele>
        <time>2012-08-17T08:25:34Z</time>
      </trkpt>
      <trkpt lat="50.16942" lon="4.11512">
        <ele>220.28</ele>
        <time>2012-08-17T08:25:37Z</time>
      </trkpt>
      <trkpt lat="50.16932" lon="4.11499">
        <ele>221.24</ele>
        <time>2012-08-17T08:25:40Z</time>
      </trkpt>
      <trkpt lat="50.16923" lon="4.11486">
        <ele>221.24</ele>
        <time>2012-08-17T08:25:43Z</time>
      </trkpt>
      <trkpt lat="50.16913" lon="4.11473">
        <ele>221.24</ele>
        <time>2012-08-17T08:25:46Z</time>
      </trkpt>
      <trkpt lat="50.16904" lon="4.11459">
        <ele>219.8</ele>
        <time>2012-08-17T08:25:49Z</time>
      </trkpt>
      <trkpt lat="50.16896" lon="4.11445">
        <ele>220.76</ele>
        <time>2012-08-17T08:25:52Z</time>
      </trkpt>
      <trkpt lat="50.16888" lon="4.11432">
        <ele>220.76</ele>
        <time>2012-08-17T08:25:55Z</time>
      </trkpt>
      <trkpt lat="50.1688" lon="4.11418">
        <ele>220.76</ele>
        <time>2012-08-17T08:25:58Z</time>
      </trkpt>
      <trkpt lat="50.16871" lon="4.11402">
        <ele>219.8</ele>
        <time>2012-08-17T08:26:01Z</time>
      </trkpt>
      <trkpt lat="50.16863" lon="4.11391">
        <ele>219.8</ele>
        <time>2012-08-17T08:26:03Z</time>
      </trkpt>
      <trkpt lat="50.16855" lon="4.11379">
        <ele>218.36</ele>
        <time>2012-08-17T08:26:05Z</time>
      </trkpt>
      <trkpt lat="50.16846" lon="4.11366">
        <ele>218.36</ele>
        <time>2012-08-17T08:26:07Z</time>
      </trkpt>
      <trkpt lat="50.16837" lon="4.11354">
        <ele>217.88</ele>
        <time>2012-08-17T08:26:09Z</time>
      </trkpt>
      <trkpt lat="50.16828" lon="4.1134">
        <ele>217.4</ele>
        <time>2012-08-17T08:26:11Z</time>
      </trkpt>
      <trkpt lat="50.1682" lon="4.11326">
        <ele>217.88</ele>
        <time>2012-08-17T08:26:13Z</time>
      </trkpt>
      <trkpt lat="50.16813" lon="4.11311">
        <ele>217.4</ele>
        <time>2012-08-17T08:26:15Z</time>
      </trkpt>
      <trkpt lat="50.16807" lon="4.11296">
        <ele>217.4</ele>
        <time>2012-08-17T08:26:17Z</time>
      </trkpt>
      <trkpt lat="50.16802" lon="4.11282">
        <ele>215.95</ele>
        <time>2012-08-17T08:26:19Z</time>
      </trkpt>
      <trkpt lat="50.16797" lon="4.11268">
        <ele>215.95</ele>
        <time>2012-08-17T08:26:21Z</time>
      </trkpt>
      <trkpt lat="50.16792" lon="4.11256">
        <ele>216.43</ele>
        <time>2012-08-17T08:26:23Z</time>
      </trkpt>
      <trkpt lat="50.16786" lon="4.11244">
        <ele>216.43</ele>
        <time>2012-08-17T08:26:25Z</time>
      </trkpt>
      <trkpt lat="50.16777" lon="4.11229">
        <ele>216.43</ele>
        <time>2012-08-17T08:26:28Z</time>
      </trkpt>
      <trkpt lat="50.16769" lon="4.11215">
        <ele>216.43</ele>
        <time>2012-08-17T08:26:31Z</time>
      </trkpt>
      <trkpt lat="50.1676" lon="4.11202">
        <ele>216.91</ele>
        <time>2012-08-17T08:26:34Z</time>
      </trkpt>
      <trkpt lat="50.16751" lon="4.11191">
        <ele>216.43</ele>
        <time>2012-08-17T08:26:37Z</time>
      </trkpt>
      <trkpt lat="50.16742" lon="4.11182">
        <ele>217.88</ele>
        <time>2012-08-17T08:26:40Z</time>
      </trkpt>
      <trkpt lat="50.16734" lon="4.11171">
        <ele>217.4</ele>
        <time>2012-08-17T08:26:43Z</time>
      </trkpt>
      <trkpt lat="50.16725" lon="4.1116">
        <ele>217.88</ele>
        <time>2012-08-17T08:26:46Z</time>
      </trkpt>
      <trkpt lat="50.16718" lon="4.11147">
        <ele>217.88</ele>
        <time>2012-08-17T08:26:49Z</time>
      </trkpt>
      <trkpt lat="50.16714" lon="4.11133">
        <ele>219.32</ele>
        <time>2012-08-17T08:26:52Z</time>
      </trkpt>
      <trkpt lat="50.16712" lon="4.11116">
        <ele>218.84</ele>
        <time>2012-08-17T08:26:55Z</time>
      </trkpt>
      <trkpt lat="50.16711" lon="4.11101">
        <ele>217.4</ele>
        <time>2012-08-17T08:26:58Z</time>
      </trkpt>
      <trkpt lat="50.16711" lon="4.11086">
        <ele>217.4</ele>
        <time>2012-08-17T08:27:01Z</time>
      </trkpt>
      <trkpt lat="50.1671" lon="4.11068">
        <ele>217.4</ele>
        <time>2012-08-17T08:27:05Z</time>
      </trkpt>
      <trkpt lat="50.16707" lon="4.11053">
        <ele>217.88</ele>
        <time>2012-08-17T08:27:08Z</time>
      </trkpt>
      <trkpt lat="50.16706" lon="4.11038">
        <ele>217.88</ele>
        <time>2012-08-17T08:27:11Z</time>
      </trkpt>
      <trkpt lat="50.16709" lon="4.11021">
        <ele>216.43</ele>
        <time>2012-08-17T08:27:15Z</time>
      </trkpt>
      <trkpt lat="50.16713" lon="4.11005">
        <ele>215.95</ele>
        <time>2012-08-17T08:27:18Z</time>
      </trkpt>
      <trkpt lat="50.16716" lon="4.10989">
        <ele>214.99</ele>
        <time>2012-08-17T08:27:20Z</time>
      </trkpt>
      <trkpt lat="50.16718" lon="4.10972">
        <ele>214.51</ele>
        <time>2012-08-17T08:27:22Z</time>
      </trkpt>
      <trkpt lat="50.16719" lon="4.10954">
        <ele>213.07</ele>
        <time>2012-08-17T08:27:24Z</time>
      </trkpt>
      <trkpt lat="50.16721" lon="4.1094">
        <ele>211.63</ele>
        <time>2012-08-17T08:27:26Z</time>
      </trkpt>
      <trkpt lat="50.16723" lon="4.1092">
        <ele>211.15</ele>
        <time>2012-08-17T08:27:29Z</time>
      </trkpt>
      <trkpt lat="50.1673" lon="4.1091">
        <ele>209.7</ele>
        <time>2012-08-17T08:27:32Z</time>
      </trkpt>
      <trkpt lat="50.16744" lon="4.10905">
        <ele>207.78</ele>
        <time>2012-08-17T08:27:35Z</time>
      </trkpt>
      <trkpt lat="50.16754" lon="4.10903">
        <ele>206.82</ele>
        <time>2012-08-17T08:27:37Z</time>
      </trkpt>
      <trkpt lat="50.16767" lon="4.10905">
        <ele>206.82</ele>
        <time>2012-08-17T08:27:39Z</time>
      </trkpt>
      <trkpt lat="50.16779" lon="4.10904">
        <ele>205.38</ele>
        <time>2012-08-17T08:27:41Z</time>
      </trkpt>
      <trkpt lat="50.16792" lon="4.10899">
        <ele>204.42</ele>
        <time>2012-08-17T08:27:43Z</time>
      </trkpt>
      <trkpt lat="50.16803" lon="4.10892">
        <ele>203.94</ele>
        <time>2012-08-17T08:27:45Z</time>
      </trkpt>
      <trkpt lat="50.16813" lon="4.10882">
        <ele>202.49</ele>
        <time>2012-08-17T08:27:47Z</time>
      </trkpt>
      <trkpt lat="50.16821" lon="4.10867">
        <ele>201.53</ele>
        <time>2012-08-17T08:27:49Z</time>
      </trkpt>
      <trkpt lat="50.16825" lon="4.10847">
        <ele>201.05</ele>
        <time>2012-08-17T08:27:51Z</time>
      </trkpt>
      <trkpt lat="50.16825" lon="4.10825">
        <ele>199.61</ele>
        <time>2012-08-17T08:27:53Z</time>
      </trkpt>
      <trkpt lat="50.16821" lon="4.10805">
        <ele>198.65</ele>
        <time>2012-08-17T08:27:55Z</time>
      </trkpt>
      <trkpt lat="50.16815" lon="4.10785">
        <ele>197.69</ele>
        <time>2012-08-17T08:27:57Z</time>
      </trkpt>
      <trkpt lat="50.16811" lon="4.10766">
        <ele>197.69</ele>
        <time>2012-08-17T08:27:59Z</time>
      </trkpt>
      <trkpt lat="50.1681" lon="4.10749">
        <ele>198.17</ele>
        <time>2012-08-17T08:28:01Z</time>
      </trkpt>
      <trkpt lat="50.16808" lon="4.10733">
        <ele>198.17</ele>
        <time>2012-08-17T08:28:03Z</time>
      </trkpt>
      <trkpt lat="50.16807" lon="4.10713">
        <ele>198.65</ele>
        <time>2012-08-17T08:28:06Z</time>
      </trkpt>
      <trkpt lat="50.16809" lon="4.10697">
        <ele>199.13</ele>
        <time>2012-08-17T08:28:09Z</time>
      </trkpt>
      <trkpt lat="50.16816" lon="4.10682">
        <ele>199.13</ele>
        <time>2012-08-17T08:28:13Z</time>
      </trkpt>
      <trkpt lat="50.16824" lon="4.10669">
        <ele>200.09</ele>
        <time>2012-08-17T08:28:17Z</time>
      </trkpt>
      <trkpt lat="50.1683" lon="4.10655">
        <ele>202.01</ele>
        <time>2012-08-17T08:28:21Z</time>
      </trkpt>
      <trkpt lat="50.16839" lon="4.10642">
        <ele>202.49</ele>
        <time>2012-08-17T08:28:26Z</time>
      </trkpt>
      <trkpt lat="50.16846" lon="4.10628">
        <ele>203.46</ele>
        <time>2012-08-17T08:28:31Z</time>
      </trkpt>
      <trkpt lat="50.16853" lon="4.10614">
        <ele>204.42</ele>
        <time>2012-08-17T08:28:36Z</time>
      </trkpt>
      <trkpt lat="50.1686" lon="4.10601">
        <ele>203.94</ele>
        <time>2012-08-17T08:28:41Z</time>
      </trkpt>
      <trkpt lat="50.16868" lon="4.10587">
        <ele>204.42</ele>
        <time>2012-08-17T08:28:46Z</time>
      </trkpt>
      <trkpt lat="50.16875" lon="4.10573">
        <ele>205.38</ele>
        <time>2012-08-17T08:28:51Z</time>
      </trkpt>
      <trkpt lat="50.16881" lon="4.10557">
        <ele>205.38</ele>
        <time>2012-08-17T08:28:57Z</time>
      </trkpt>
      <trkpt lat="50.16887" lon="4.10541">
        <ele>206.82</ele>
        <time>2012-08-17T08:29:03Z</time>
      </trkpt>
      <trkpt lat="50.16895" lon="4.10518">
        <ele>206.34</ele>
        <time>2012-08-17T08:29:10Z</time>
      </trkpt>
      <trkpt lat="50.16903" lon="4.10497">
        <ele>207.3</ele>
        <time>2012-08-17T08:29:16Z</time>
      </trkpt>
      <trkpt lat="50.1691" lon="4.10479">
        <ele>207.3</ele>
        <time>2012-08-17T08:29:24Z</time>
      </trkpt>
      <trkpt lat="50.16914" lon="4.10461">
        <ele>206.34</ele>
        <time>2012-08-17T08:29:31Z</time>
      </trkpt>
      <trkpt lat="50.16923" lon="4.10443">
        <ele>205.86</ele>
        <time>2012-08-17T08:29:35Z</time>
      </trkpt>
      <trkpt lat="50.16936" lon="4.10424">
        <ele>205.38</ele>
        <time>2012-08-17T08:29:38Z</time>
      </trkpt>
      <trkpt lat="50.1695" lon="4.10408">
        <ele>205.38</ele>
        <time>2012-08-17T08:29:41Z</time>
      </trkpt>
      <trkpt lat="50.16959" lon="4.10399">
        <ele>203.94</ele>
        <time>2012-08-17T08:29:43Z</time>
      </trkpt>
      <trkpt lat="50.16969" lon="4.10391">
        <ele>202.98</ele>
        <time>2012-08-17T08:29:45Z</time>
      </trkpt>
      <trkpt lat="50.16979" lon="4.10384">
        <ele>202.49</ele>
        <time>2012-08-17T08:29:47Z</time>
      </trkpt>
      <trkpt lat="50.1699" lon="4.10377">
        <ele>202.01</ele>
        <time>2012-08-17T08:29:49Z</time>
      </trkpt>
      <trkpt lat="50.17002" lon="4.1037">
        <ele>201.05</ele>
        <time>2012-08-17T08:29:51Z</time>
      </trkpt>
      <trkpt lat="50.17013" lon="4.10363">
        <ele>200.57</ele>
        <time>2012-08-17T08:29:53Z</time>
      </trkpt>
      <trkpt lat="50.17025" lon="4.10357">
        <ele>200.09</ele>
        <time>2012-08-17T08:29:55Z</time>
      </trkpt>
      <trkpt lat="50.17036" lon="4.10351">
        <ele>200.09</ele>
        <time>2012-08-17T08:29:57Z</time>
      </trkpt>
      <trkpt lat="50.17048" lon="4.10344">
        <ele>199.61</ele>
        <time>2012-08-17T08:29:59Z</time>
      </trkpt>
      <trkpt lat="50.17059" lon="4.10338">
        <ele>199.13</ele>
        <time>2012-08-17T08:30:01Z</time>
      </trkpt>
      <trkpt lat="50.17072" lon="4.10329">
        <ele>197.69</ele>
        <time>2012-08-17T08:30:03Z</time>
      </trkpt>
      <trkpt lat="50.17084" lon="4.10317">
        <ele>195.77</ele>
        <time>2012-08-17T08:30:05Z</time>
      </trkpt>
      <trkpt lat="50.17097" lon="4.10303">
        <ele>195.28</ele>
        <time>2012-08-17T08:30:07Z</time>
      </trkpt>
      <trkpt lat="50.17109" lon="4.10287">
        <ele>193.36</ele>
        <time>2012-08-17T08:30:09Z</time>
      </trkpt>
      <trkpt lat="50.17122" lon="4.10267">
        <ele>193.84</ele>
        <time>2012-08-17T08:30:11Z</time>
      </trkpt>
      <trkpt lat="50.17131" lon="4.10244">
        <ele>193.84</ele>
        <time>2012-08-17T08:30:13Z</time>
      </trkpt>
      <trkpt lat="50.17139" lon="4.10219">
        <ele>193.84</ele>
        <time>2012-08-17T08:30:15Z</time>
      </trkpt>
      <trkpt lat="50.17145" lon="4.10195">
        <ele>194.8</ele>
        <time>2012-08-17T08:30:17Z</time>
      </trkpt>
      <trkpt lat="50.1715" lon="4.10176">
        <ele>195.28</ele>
        <time>2012-08-17T08:30:19Z</time>
      </trkpt>
      <trkpt lat="50.17152" lon="4.1016">
        <ele>195.77</ele>
        <time>2012-08-17T08:30:21Z</time>
      </trkpt>
      <trkpt lat="50.17154" lon="4.10143">
        <ele>196.73</ele>
        <time>2012-08-17T08:30:24Z</time>
      </trkpt>
      <trkpt lat="50.17155" lon="4.10127">
        <ele>197.69</ele>
        <time>2012-08-17T08:30:27Z</time>
      </trkpt>
      <trkpt lat="50.17155" lon="4.10113">
        <ele>198.17</ele>
        <time>2012-08-17T08:30:30Z</time>
      </trkpt>
      <trkpt lat="50.17155" lon="4.10095">
        <ele>199.61</ele>
        <time>2012-08-17T08:30:34Z</time>
      </trkpt>
      <trkpt lat="50.17156" lon="4.10078">
        <ele>200.09</ele>
        <time>2012-08-17T08:30:38Z</time>
      </trkpt>
      <trkpt lat="50.17157" lon="4.10062">
        <ele>200.09</ele>
        <time>2012-08-17T08:30:42Z</time>
      </trkpt>
      <trkpt lat="50.17158" lon="4.10047">
        <ele>201.53</ele>
        <time>2012-08-17T08:30:46Z</time>
      </trkpt>
      <trkpt lat="50.17158" lon="4.1003">
        <ele>201.53</ele>
        <time>2012-08-17T08:30:51Z</time>
      </trkpt>
      <trkpt lat="50.17159" lon="4.10016">
        <ele>202.49</ele>
        <time>2012-08-17T08:30:55Z</time>
      </trkpt>
      <trkpt lat="50.17159" lon="4.1">
        <ele>202.01</ele>
        <time>2012-08-17T08:30:59Z</time>
      </trkpt>
      <trkpt lat="50.1716" lon="4.09983">
        <ele>202.98</ele>
        <time>2012-08-17T08:31:04Z</time>
      </trkpt>
      <trkpt lat="50.17162" lon="4.09966">
        <ele>203.94</ele>
        <time>2012-08-17T08:31:09Z</time>
      </trkpt>
      <trkpt lat="50.17162" lon="4.09951">
        <ele>203.94</ele>
        <time>2012-08-17T08:31:14Z</time>
      </trkpt>
      <trkpt lat="50.17163" lon="4.09936">
        <ele>204.42</ele>
        <time>2012-08-17T08:31:19Z</time>
      </trkpt>
      <trkpt lat="50.17164" lon="4.09921">
        <ele>205.38</ele>
        <time>2012-08-17T08:31:24Z</time>
      </trkpt>
      <trkpt lat="50.17165" lon="4.09905">
        <ele>205.86</ele>
        <time>2012-08-17T08:31:31Z</time>
      </trkpt>
      <trkpt lat="50.17164" lon="4.0989">
        <ele>205.86</ele>
        <time>2012-08-17T08:31:39Z</time>
      </trkpt>
      <trkpt lat="50.17167" lon="4.09873">
        <ele>205.38</ele>
        <time>2012-08-17T08:31:46Z</time>
      </trkpt>
      <trkpt lat="50.17169" lon="4.09854">
        <ele>204.9</ele>
        <time>2012-08-17T08:31:52Z</time>
      </trkpt>
      <trkpt lat="50.17173" lon="4.09841">
        <ele>205.38</ele>
        <time>2012-08-17T08:31:59Z</time>
      </trkpt>
      <trkpt lat="50.17175" lon="4.09825">
        <ele>204.9</ele>
        <time>2012-08-17T08:32:04Z</time>
      </trkpt>
      <trkpt lat="50.17178" lon="4.09808">
        <ele>203.94</ele>
        <time>2012-08-17T08:32:08Z</time>
      </trkpt>
      <trkpt lat="50.17183" lon="4.0979">
        <ele>202.01</ele>
        <time>2012-08-17T08:32:12Z</time>
      </trkpt>
      <trkpt lat="50.17186" lon="4.09772">
        <ele>201.05</ele>
        <time>2012-08-17T08:32:15Z</time>
      </trkpt>
      <trkpt lat="50.17191" lon="4.09751">
        <ele>200.09</ele>
        <time>2012-08-17T08:32:18Z</time>
      </trkpt>
      <trkpt lat="50.17196" lon="4.09736">
        <ele>199.13</ele>
        <time>2012-08-17T08:32:20Z</time>
      </trkpt>
      <trkpt lat="50.17203" lon="4.0972">
        <ele>198.65</ele>
        <time>2012-08-17T08:32:22Z</time>
      </trkpt>
      <trkpt lat="50.17216" lon="4.09696">
        <ele>195.77</ele>
        <time>2012-08-17T08:32:24Z</time>
      </trkpt>
      <trkpt lat="50.17231" lon="4.0967">
        <ele>195.77</ele>
        <time>2012-08-17T08:32:26Z</time>
      </trkpt>
      <trkpt lat="50.17243" lon="4.09648">
        <ele>196.25</ele>
        <time>2012-08-17T08:32:28Z</time>
      </trkpt>
      <trkpt lat="50.17253" lon="4.09626">
        <ele>195.77</ele>
        <time>2012-08-17T08:32:30Z</time>
      </trkpt>
      <trkpt lat="50.17265" lon="4.09601">
        <ele>194.8</ele>
        <time>2012-08-17T08:32:32Z</time>
      </trkpt>
      <trkpt lat="50.17275" lon="4.09577">
        <ele>194.32</ele>
        <time>2012-08-17T08:32:34Z</time>
      </trkpt>
      <trkpt lat="50.17285" lon="4.09554">
        <ele>194.32</ele>
        <time>2012-08-17T08:32:36Z</time>
      </trkpt>
      <trkpt lat="50.17296" lon="4.0953">
        <ele>192.88</ele>
        <time>2012-08-17T08:32:38Z</time>
      </trkpt>
      <trkpt lat="50.17305" lon="4.09508">
        <ele>192.88</ele>
        <time>2012-08-17T08:32:40Z</time>
      </trkpt>
      <trkpt lat="50.17314" lon="4.09487">
        <ele>192.4</ele>
        <time>2012-08-17T08:32:42Z</time>
      </trkpt>
      <trkpt lat="50.17323" lon="4.09466">
        <ele>193.36</ele>
        <time>2012-08-17T08:32:44Z</time>
      </trkpt>
      <trkpt lat="50.17332" lon="4.09446">
        <ele>192.4</ele>
        <time>2012-08-17T08:32:46Z</time>
      </trkpt>
      <trkpt lat="50.17339" lon="4.09429">
        <ele>192.88</ele>
        <time>2012-08-17T08:32:48Z</time>
      </trkpt>
      <trkpt lat="50.17347" lon="4.09416">
        <ele>192.88</ele>
        <time>2012-08-17T08:32:50Z</time>
      </trkpt>
      <trkpt lat="50.17354" lon="4.09404">
        <ele>192.88</ele>
        <time>2012-08-17T08:32:52Z</time>
      </trkpt>
      <trkpt lat="50.17361" lon="4.09392">
        <ele>192.88</ele>
        <time>2012-08-17T08:32:55Z</time>
      </trkpt>
      <trkpt lat="50.17365" lon="4.09377">
        <ele>191.92</ele>
        <time>2012-08-17T08:33:00Z</time>
      </trkpt>
      <trkpt lat="50.17365" lon="4.09358">
        <ele>191.92</ele>
        <time>2012-08-17T08:33:04Z</time>
      </trkpt>
      <trkpt lat="50.17365" lon="4.09338">
        <ele>191.44</ele>
        <time>2012-08-17T08:33:08Z</time>
      </trkpt>
      <trkpt lat="50.17364" lon="4.09323">
        <ele>191.92</ele>
        <time>2012-08-17T08:33:11Z</time>
      </trkpt>
      <trkpt lat="50.17363" lon="4.09306">
        <ele>191.92</ele>
        <time>2012-08-17T08:33:14Z</time>
      </trkpt>
      <trkpt lat="50.17362" lon="4.09287">
        <ele>191.44</ele>
        <time>2012-08-17T08:33:17Z</time>
      </trkpt>
      <trkpt lat="50.17361" lon="4.09266">
        <ele>190.96</ele>
        <time>2012-08-17T08:33:20Z</time>
      </trkpt>
      <trkpt lat="50.1736" lon="4.09245">
        <ele>190</ele>
        <time>2012-08-17T08:33:23Z</time>
      </trkpt>
      <trkpt lat="50.17362" lon="4.09222">
        <ele>190</ele>
        <time>2012-08-17T08:33:26Z</time>
      </trkpt>
      <trkpt lat="50.17374" lon="4.09208">
        <ele>189.52</ele>
        <time>2012-08-17T08:33:30Z</time>
      </trkpt>
      <trkpt lat="50.17385" lon="4.09202">
        <ele>189.52</ele>
        <time>2012-08-17T08:33:33Z</time>
      </trkpt>
      <trkpt lat="50.17397" lon="4.09195">
        <ele>189.04</ele>
        <time>2012-08-17T08:33:37Z</time>
      </trkpt>
    </trkseg>
  </trk>
  <trk>
    <name><![CDATA[Variante Biau Ri]]></name>
    <trkseg>
      <trkpt lat="50.18049" lon="4.11944">
        <ele>204.046875</ele>
      </trkpt>
      <trkpt lat="50.17999" lon="4.1206">
        <ele>207.2421875</ele>
      </trkpt>
      <trkpt lat="50.17976" lon="4.12135">
        <ele>207.4609375</ele>
      </trkpt>
      <trkpt lat="50.17959" lon="4.12179">
        <ele>206.609375</ele>
      </trkpt>
      <trkpt lat="50.17911" lon="4.12256">
        <ele>201.5742188</ele>
      </trkpt>
      <trkpt lat="50.17884" lon="4.12315">
        <ele>199.2226563</ele>
      </trkpt>
      <trkpt lat="50.17859" lon="4.12444">
        <ele>199.9609375</ele>
      </trkpt>
      <trkpt lat="50.17839" lon="4.12536">
        <ele>199.8945313</ele>
      </trkpt>
      <trkpt lat="50.17823" lon="4.12593">
        <ele>200.96875</ele>
      </trkpt>
      <trkpt lat="50.17792" lon="4.12598">
        <ele>199.5859375</ele>
      </trkpt>
      <trkpt lat="50.17729" lon="4.12593">
        <ele>200</ele>
      </trkpt>
    </trkseg>
  </trk>
</gpx>